Observation data for Menard on 05/27/2019      Previous  Date  Next       Current Mesonet Observations  Soil Data  Daily Summary Page  Observations in Plain Language
KMD1 270500Z 15009KT 24/19 A2994 RMK A01 T02410193  RH  074%=      5-min Rain = 0
KMD1 270501Z 15010KT 24/19 A2994 RMK A01 T02410194  RH  075%=      5-min Rain = 0
KMD1 270502Z 16012KT 24/19 A2994 RMK A01 T02400194  RH  075%=      5-min Rain = 0
KMD1 270503Z 16011KT 24/19 A2994 RMK A01 T02400194  RH  075%=      5-min Rain = 0
KMD1 270504Z 16010KT 24/19 A2994 RMK A01 T02400193  RH  075%=      5-min Rain = 0
KMD1 270505Z 16015KT 24/19 A2994 RMK A01 T02400193  RH  075%=      5-min Rain = 0
KMD1 270506Z 16011KT 24/19 A2994 RMK A01 T02400193  RH  075%=      5-min Rain = 0
KMD1 270507Z 16008G13KT 24/19 A2994 RMK A01 T02410193  RH  075%=      5-min Rain = 0
KMD1 270508Z 16010KT 24/19 A2994 RMK A01 T02410194  RH  075%=      5-min Rain = 0
KMD1 270509Z 15010KT 24/19 A2994 RMK A01 T02400193  RH  075%=      5-min Rain = 0
KMD1 270510Z 15012G19KT 24/19 A2994 RMK A01 T02400193  RH  075%=      5-min Rain = 0
KMD1 270511Z 16015KT 24/19 A2994 RMK A01 T02400193  RH  075%=      5-min Rain = 0
KMD1 270512Z 16012G17KT 24/19 A2994 RMK A01 T02400192  RH  075%=      5-min Rain = 0
KMD1 270513Z 16008KT 24/19 A2994 RMK A01 T02410193  RH  075%=      5-min Rain = 0
KMD1 270514Z 16009KT 24/19 A2994 RMK A01 T02400193  RH  075%=      5-min Rain = 0
KMD1 270515Z 16009KT 24/19 A2994 RMK A01 T02390193  RH  075%=      5-min Rain = 0
KMD1 270516Z 17011G16KT 24/19 A2994 RMK A01 T02390193  RH  076%=      5-min Rain = 0
KMD1 270517Z 16012KT 24/19 A2994 RMK A01 T02380192  RH  075%=      5-min Rain = 0
KMD1 270518Z 16013KT 24/19 A2994 RMK A01 T02390192  RH  075%=      5-min Rain = 0
KMD1 270519Z 17010KT 24/19 A2994 RMK A01 T02390192  RH  075%=      5-min Rain = 0
KMD1 270520Z 16010KT 24/19 A2994 RMK A01 T02390192  RH  075%=      5-min Rain = 0
KMD1 270521Z 16011G16KT 24/19 A2994 RMK A01 T02390192  RH  075%=      5-min Rain = 0
KMD1 270522Z 16014KT 24/19 A2994 RMK A01 T02390192  RH  075%=      5-min Rain = 0
KMD1 270523Z 15010KT 24/19 A2994 RMK A01 T02390191  RH  075%=      5-min Rain = 0
KMD1 270524Z 17011KT 24/19 A2994 RMK A01 T02390192  RH  075%=      5-min Rain = 0
KMD1 270525Z 16009KT 24/19 A2994 RMK A01 T02390192  RH  075%=      5-min Rain = 0
KMD1 270526Z 17008KT 24/19 A2994 RMK A01 T02390192  RH  075%=      5-min Rain = 0
KMD1 270527Z 16008KT 24/19 A2994 RMK A01 T02380192  RH  075%=      5-min Rain = 0
KMD1 270528Z 17008KT 24/19 A2994 RMK A01 T02380192  RH  075%=      5-min Rain = 0
KMD1 270529Z 16006KT 24/19 A2994 RMK A01 T02370192  RH  076%=      5-min Rain = 0
KMD1 270530Z 16009KT 24/19 A2994 RMK A01 T02370192  RH  076%=      5-min Rain = 0
KMD1 270531Z 17008KT 24/19 A2994 RMK A01 T02360191  RH  076%=      5-min Rain = 0
KMD1 270532Z 16008KT 24/19 A2994 RMK A01 T02370191  RH  076%=      5-min Rain = 0
KMD1 270533Z 17008KT 24/19 A2994 RMK A01 T02370192  RH  076%=      5-min Rain = 0
KMD1 270534Z 18009KT 24/19 A2994 RMK A01 T02360191  RH  076%=      5-min Rain = 0
KMD1 270535Z 16008KT 24/19 A2994 RMK A01 T02370191  RH  076%=      5-min Rain = 0
KMD1 270536Z 16007KT 24/19 A2994 RMK A01 T02360191  RH  076%=      5-min Rain = 0
KMD1 270537Z 17009KT 24/19 A2994 RMK A01 T02350192  RH  076%=      5-min Rain = 0
KMD1 270538Z 16011KT 24/19 A2994 RMK A01 T02350191  RH  077%=      5-min Rain = 0
KMD1 270539Z 17009KT 24/19 A2994 RMK A01 T02350191  RH  076%=      5-min Rain = 0
KMD1 270540Z 17011KT 23/19 A2993 RMK A01 T02340191  RH  077%=      5-min Rain = 0
KMD1 270541Z 17012KT 23/19 A2993 RMK A01 T02340191  RH  077%=      5-min Rain = 0
KMD1 270542Z 15012KT 23/19 A2993 RMK A01 T02340191  RH  076%=      5-min Rain = 0
KMD1 270543Z 15014KT 23/19 A2993 RMK A01 T02340190  RH  076%=      5-min Rain = 0
KMD1 270544Z 17010KT 24/19 A2993 RMK A01 T02350190  RH  076%=      5-min Rain = 0
KMD1 270545Z 16013KT 23/19 A2993 RMK A01 T02340190  RH  076%=      5-min Rain = 0
KMD1 270546Z 17013KT 24/19 A2993 RMK A01 T02350190  RH  076%=      5-min Rain = 0
KMD1 270547Z 17013KT 23/19 A2994 RMK A01 T02340190  RH  076%=      5-min Rain = 0
KMD1 270548Z 16012KT 24/19 A2994 RMK A01 T02350190  RH  076%=      5-min Rain = 0
KMD1 270549Z 17012KT 23/19 A2994 RMK A01 T02340190  RH  076%=      5-min Rain = 0
KMD1 270550Z 17015KT 23/19 A2994 RMK A01 T02340190  RH  076%=      5-min Rain = 0
KMD1 270551Z 17010KT 23/19 A2994 RMK A01 T02340189  RH  076%=      5-min Rain = 0
KMD1 270552Z 17009KT 23/19 A2994 RMK A01 T02340189  RH  076%=      5-min Rain = 0
KMD1 270553Z 17011KT 23/19 A2994 RMK A01 T02340190  RH  076%=      5-min Rain = 0
KMD1 270554Z 17012KT 23/19 A2994 RMK A01 T02340190  RH  076%=      5-min Rain = 0
KMD1 270555Z 17010KT 23/19 A2994 RMK A01 T02340190  RH  076%=      5-min Rain = 0
KMD1 270556Z 17012KT 23/19 A2994 RMK A01 T02330190  RH  076%=      5-min Rain = 0
KMD1 270557Z 18013KT 23/19 A2994 RMK A01 T02330189  RH  076%=      5-min Rain = 0
KMD1 270558Z 17011KT 23/19 A2994 RMK A01 T02330189  RH  076%=      5-min Rain = 0
KMD1 270559Z 17008KT 23/19 A2994 RMK A01 T02330189  RH  076%=      5-min Rain = 0
KMD1 270600Z 17011KT 23/19 A2994 RMK A01 T02330190  RH  077%=      5-min Rain = 0
KMD1 270601Z 17010KT 23/19 A2994 RMK A01 T02320189  RH  077%=      5-min Rain = 0
KMD1 270602Z 17011KT 23/19 A2994 RMK A01 T02320189  RH  077%=      5-min Rain = 0
KMD1 270603Z 17010KT 23/19 A2994 RMK A01 T02320189  RH  077%=      5-min Rain = 0
KMD1 270604Z 18009KT 23/19 A2994 RMK A01 T02320189  RH  077%=      5-min Rain = 0
KMD1 270605Z 17009KT 23/19 A2994 RMK A01 T02310189  RH  077%=      5-min Rain = 0
KMD1 270606Z 18009KT 23/19 A2994 RMK A01 T02310189  RH  077%=      5-min Rain = 0
KMD1 270607Z 18008KT 23/19 A2994 RMK A01 T02310190  RH  078%=      5-min Rain = 0
KMD1 270608Z 16009KT 23/19 A2994 RMK A01 T02310189  RH  077%=      5-min Rain = 0
KMD1 270609Z 17008KT 23/19 A2994 RMK A01 T02300190  RH  078%=      5-min Rain = 0
KMD1 270610Z 17007KT 23/19 A2994 RMK A01 T02290189  RH  078%=      5-min Rain = 0
KMD1 270611Z 17009KT 23/19 A2994 RMK A01 T02290189  RH  078%=      5-min Rain = 0
KMD1 270612Z 16014KT 23/19 A2994 RMK A01 T02290188  RH  078%=      5-min Rain = 0
KMD1 270613Z 16011KT 23/19 A2994 RMK A01 T02300188  RH  077%=      5-min Rain = 0
KMD1 270614Z 17010KT 23/19 A2994 RMK A01 T02300189  RH  077%=      5-min Rain = 0
KMD1 270615Z 16008KT 23/19 A2994 RMK A01 T02310189  RH  077%=      5-min Rain = 0
KMD1 270616Z 17007KT 23/19 A2994 RMK A01 T02300189  RH  078%=      5-min Rain = 0
KMD1 270617Z 16010KT 23/19 A2994 RMK A01 T02290189  RH  078%=      5-min Rain = 0
KMD1 270618Z 17010KT 23/19 A2994 RMK A01 T02290189  RH  078%=      5-min Rain = 0
KMD1 270619Z 16011KT 23/19 A2994 RMK A01 T02290188  RH  078%=      5-min Rain = 0
KMD1 270620Z 16010KT 23/19 A2994 RMK A01 T02300188  RH  078%=      5-min Rain = 0
KMD1 270621Z 17010KT 23/19 A2994 RMK A01 T02300189  RH  078%=      5-min Rain = 0
KMD1 270622Z 16009KT 23/19 A2994 RMK A01 T02300189  RH  078%=      5-min Rain = 0
KMD1 270623Z 16007KT 23/19 A2994 RMK A01 T02290188  RH  078%=      5-min Rain = 0
KMD1 270624Z 17008KT 23/19 A2994 RMK A01 T02290189  RH  078%=      5-min Rain = 0
KMD1 270625Z 16013KT 23/19 A2994 RMK A01 T02280188  RH  078%=      5-min Rain = 0
KMD1 270626Z 16009KT 23/19 A2994 RMK A01 T02290188  RH  078%=      5-min Rain = 0
KMD1 270627Z 17009KT 23/19 A2994 RMK A01 T02300188  RH  077%=      5-min Rain = 0
KMD1 270628Z 17009KT 23/19 A2994 RMK A01 T02290189  RH  078%=      5-min Rain = 0
KMD1 270629Z 17008KT 23/19 A2994 RMK A01 T02290188  RH  078%=      5-min Rain = 0
KMD1 270630Z 16010KT 23/19 A2994 RMK A01 T02280188  RH  078%=      5-min Rain = 0
KMD1 270631Z 17010KT 23/19 A2994 RMK A01 T02280188  RH  078%=      5-min Rain = 0
KMD1 270632Z 18008KT 23/19 A2994 RMK A01 T02280188  RH  078%=      5-min Rain = 0
KMD1 270633Z 17008KT 23/19 A2994 RMK A01 T02280189  RH  078%=      5-min Rain = 0
KMD1 270634Z 17008KT 23/19 A2994 RMK A01 T02270188  RH  078%=      5-min Rain = 0
KMD1 270635Z 17007KT 23/19 A2994 RMK A01 T02270188  RH  078%=      5-min Rain = 0
KMD1 270636Z 17007KT 23/19 A2994 RMK A01 T02270188  RH  079%=      5-min Rain = 0
KMD1 270637Z 18008KT 23/19 A2994 RMK A01 T02270189  RH  079%=      5-min Rain = 0
KMD1 270638Z 18007KT 23/19 A2994 RMK A01 T02260188  RH  079%=      5-min Rain = 0
KMD1 270639Z 18009G14KT 23/19 A2994 RMK A01 T02260188  RH  079%=      5-min Rain = 0
KMD1 270640Z 18008KT 23/19 A2994 RMK A01 T02260188  RH  079%=      5-min Rain = 0
KMD1 270641Z 18009KT 23/19 A2994 RMK A01 T02260187  RH  079%=      5-min Rain = 0
KMD1 270642Z 17007KT 23/19 A2994 RMK A01 T02260187  RH  079%=      5-min Rain = 0
KMD1 270643Z 16009KT 23/19 A2994 RMK A01 T02260188  RH  079%=      5-min Rain = 0
KMD1 270644Z 18011G16KT 23/19 A2994 RMK A01 T02260188  RH  079%=      5-min Rain = 0
KMD1 270645Z 17014KT 23/19 A2994 RMK A01 T02260187  RH  079%=      5-min Rain = 0
KMD1 270646Z 18014KT 23/19 A2994 RMK A01 T02270187  RH  078%=      5-min Rain = 0
KMD1 270647Z 17011KT 23/19 A2994 RMK A01 T02270187  RH  078%=      5-min Rain = 0
KMD1 270648Z 16008KT 23/19 A2994 RMK A01 T02270188  RH  078%=      5-min Rain = 0
KMD1 270649Z 16011KT 23/19 A2994 RMK A01 T02270188  RH  078%=      5-min Rain = 0
KMD1 270650Z 16012KT 23/19 A2994 RMK A01 T02260187  RH  079%=      5-min Rain = 0
KMD1 270651Z 17009KT 23/19 A2994 RMK A01 T02260187  RH  079%=      5-min Rain = 0
KMD1 270652Z 19010KT 23/19 A2994 RMK A01 T02260187  RH  079%=      5-min Rain = 0
KMD1 270653Z 17015KT 23/19 A2994 RMK A01 T02250187  RH  079%=      5-min Rain = 0
KMD1 270654Z 18010KT 23/19 A2994 RMK A01 T02250186  RH  078%=      5-min Rain = 0
KMD1 270655Z 17009KT 23/19 A2994 RMK A01 T02250186  RH  079%=      5-min Rain = 0
KMD1 270656Z 16009KT 23/19 A2994 RMK A01 T02250186  RH  079%=      5-min Rain = 0
KMD1 270657Z 16006KT 23/19 A2994 RMK A01 T02250186  RH  079%=      5-min Rain = 0
KMD1 270658Z 16007KT 23/19 A2994 RMK A01 T02250186  RH  079%=      5-min Rain = 0
KMD1 270659Z 16007KT 22/19 A2994 RMK A01 T02240187  RH  079%=      5-min Rain = 0
KMD1 270700Z 17008KT 22/19 A2994 RMK A01 T02230187  RH  080%=      5-min Rain = 0
KMD1 270701Z 18008KT 22/19 A2994 RMK A01 T02230186  RH  080%=      5-min Rain = 0
KMD1 270702Z 17010KT 22/19 A2994 RMK A01 T02230186  RH  079%=      5-min Rain = 0
KMD1 270703Z 17012KT 22/19 A2994 RMK A01 T02230185  RH  079%=      5-min Rain = 0
KMD1 270704Z 18012KT 22/19 A2994 RMK A01 T02230185  RH  079%=      5-min Rain = 0
KMD1 270705Z 17008KT 22/19 A2994 RMK A01 T02230185  RH  079%=      5-min Rain = 0
KMD1 270706Z 17010KT 22/19 A2994 RMK A01 T02230185  RH  079%=      5-min Rain = 0
KMD1 270707Z 17013KT 22/19 A2994 RMK A01 T02230185  RH  079%=      5-min Rain = 0
KMD1 270708Z 17011KT 22/19 A2994 RMK A01 T02230185  RH  079%=      5-min Rain = 0
KMD1 270709Z 17008KT 22/19 A2994 RMK A01 T02230185  RH  079%=      5-min Rain = 0
KMD1 270710Z 17009KT 22/19 A2994 RMK A01 T02230186  RH  080%=      5-min Rain = 0
KMD1 270711Z 18010KT 22/19 A2994 RMK A01 T02220185  RH  080%=      5-min Rain = 0
KMD1 270712Z 17009KT 22/19 A2994 RMK A01 T02220185  RH  080%=      5-min Rain = 0
KMD1 270713Z 18007KT 22/19 A2994 RMK A01 T02220185  RH  080%=      5-min Rain = 0
KMD1 270714Z 18010KT 22/19 A2994 RMK A01 T02220185  RH  080%=      5-min Rain = 0
KMD1 270715Z 17010KT 22/19 A2993 RMK A01 T02220185  RH  080%=      5-min Rain = 0
KMD1 270716Z 17008KT 22/19 A2993 RMK A01 T02220185  RH  080%=      5-min Rain = 0
KMD1 270717Z 17008KT 22/19 A2993 RMK A01 T02220185  RH  080%=      5-min Rain = 0
KMD1 270718Z 17010G15KT 22/19 A2993 RMK A01 T02210185  RH  080%=      5-min Rain = 0
KMD1 270719Z 17012KT 22/18 A2993 RMK A01 T02210184  RH  079%=      5-min Rain = 0
KMD1 270720Z 18013KT 22/18 A2993 RMK A01 T02210183  RH  079%=      5-min Rain = 0
KMD1 270721Z 16012KT 22/18 A2993 RMK A01 T02210183  RH  079%=      5-min Rain = 0
KMD1 270722Z 17010KT 22/18 A2993 RMK A01 T02210183  RH  079%=      5-min Rain = 0
KMD1 270723Z 18007KT 22/18 A2993 RMK A01 T02210184  RH  079%=      5-min Rain = 0
KMD1 270724Z 17008KT 22/18 A2993 RMK A01 T02210184  RH  080%=      5-min Rain = 0
KMD1 270725Z 18008KT 22/18 A2993 RMK A01 T02200184  RH  080%=      5-min Rain = 0
KMD1 270726Z 18008KT 22/18 A2993 RMK A01 T02200184  RH  080%=      5-min Rain = 0
KMD1 270727Z 18010KT 22/18 A2993 RMK A01 T02190183  RH  080%=      5-min Rain = 0
KMD1 270728Z 17008KT 22/18 A2993 RMK A01 T02190183  RH  080%=      5-min Rain = 0
KMD1 270729Z 18008KT 22/18 A2993 RMK A01 T02200183  RH  079%=      5-min Rain = 0
KMD1 270730Z 16009KT 22/18 A2993 RMK A01 T02200183  RH  079%=      5-min Rain = 0
KMD1 270731Z 17010KT 22/18 A2993 RMK A01 T02200183  RH  079%=      5-min Rain = 0
KMD1 270732Z 16008KT 22/18 A2993 RMK A01 T02200183  RH  080%=      5-min Rain = 0
KMD1 270733Z 17008KT 22/18 A2993 RMK A01 T02190183  RH  080%=      5-min Rain = 0
KMD1 270734Z 17011KT 22/18 A2993 RMK A01 T02190183  RH  080%=      5-min Rain = 0
KMD1 270735Z 16008KT 22/18 A2993 RMK A01 T02190182  RH  080%=      5-min Rain = 0
KMD1 270736Z 16010KT 22/18 A2993 RMK A01 T02190182  RH  079%=      5-min Rain = 0
KMD1 270737Z 17010KT 22/18 A2993 RMK A01 T02190182  RH  080%=      5-min Rain = 0
KMD1 270738Z 16009KT 22/18 A2993 RMK A01 T02180182  RH  080%=      5-min Rain = 0
KMD1 270739Z 18009KT 22/18 A2993 RMK A01 T02180182  RH  080%=      5-min Rain = 0
KMD1 270740Z 17008KT 22/18 A2993 RMK A01 T02180182  RH  080%=      5-min Rain = 0
KMD1 270741Z 17007KT 22/18 A2993 RMK A01 T02180182  RH  080%=      5-min Rain = 0
KMD1 270742Z 18008KT 22/18 A2993 RMK A01 T02170182  RH  080%=      5-min Rain = 0
KMD1 270743Z 17009KT 22/18 A2993 RMK A01 T02170182  RH  080%=      5-min Rain = 0
KMD1 270744Z 18009KT 22/18 A2992 RMK A01 T02170182  RH  080%=      5-min Rain = 0
KMD1 270745Z 17007KT 22/18 A2992 RMK A01 T02170182  RH  080%=      5-min Rain = 0
KMD1 270746Z 17008KT 22/18 A2992 RMK A01 T02170182  RH  080%=      5-min Rain = 0
KMD1 270747Z 17008KT 22/18 A2992 RMK A01 T02160181  RH  081%=      5-min Rain = 0
KMD1 270748Z 17009KT 22/18 A2992 RMK A01 T02160181  RH  081%=      5-min Rain = 0
KMD1 270749Z 17010KT 22/18 A2992 RMK A01 T02160182  RH  081%=      5-min Rain = 0
KMD1 270750Z 17010KT 22/18 A2992 RMK A01 T02160181  RH  081%=      5-min Rain = 0
KMD1 270751Z 17008KT 22/18 A2992 RMK A01 T02160181  RH  081%=      5-min Rain = 0
KMD1 270752Z 18009KT 22/18 A2992 RMK A01 T02160181  RH  081%=      5-min Rain = 0
KMD1 270753Z 18007KT 22/18 A2992 RMK A01 T02160181  RH  080%=      5-min Rain = 0
KMD1 270754Z 17008KT 22/18 A2993 RMK A01 T02160181  RH  081%=      5-min Rain = 0
KMD1 270755Z 17007KT 22/18 A2993 RMK A01 T02150181  RH  081%=      5-min Rain = 0
KMD1 270756Z 17011KT 22/18 A2993 RMK A01 T02150181  RH  081%=      5-min Rain = 0
KMD1 270757Z 17009G14KT 22/18 A2993 RMK A01 T02160181  RH  081%=      5-min Rain = 0
KMD1 270758Z 17009KT 22/18 A2993 RMK A01 T02150181  RH  081%=      5-min Rain = 0
KMD1 270759Z 18008KT 22/18 A2993 RMK A01 T02150180  RH  080%=      5-min Rain = 0
KMD1 270800Z 17009KT 22/18 A2992 RMK A01 T02150180  RH  080%=      5-min Rain = 0
KMD1 270801Z 17007KT 22/18 A2992 RMK A01 T02150180  RH  080%=      5-min Rain = 0
KMD1 270802Z 18007KT 22/18 A2992 RMK A01 T02150181  RH  081%=      5-min Rain = 0
KMD1 270803Z 16010KT 21/18 A2992 RMK A01 T02140181  RH  081%=      5-min Rain = 0
KMD1 270804Z 17009KT 22/18 A2992 RMK A01 T02150181  RH  081%=      5-min Rain = 0
KMD1 270805Z 17010KT 21/18 A2992 RMK A01 T02140180  RH  081%=      5-min Rain = 0
KMD1 270806Z 17010KT 21/18 A2992 RMK A01 T02140180  RH  081%=      5-min Rain = 0
KMD1 270807Z 18008KT 22/18 A2992 RMK A01 T02150180  RH  081%=      5-min Rain = 0
KMD1 270808Z 18007KT 22/18 A2992 RMK A01 T02150181  RH  081%=      5-min Rain = 0
KMD1 270809Z 17007KT 21/18 A2992 RMK A01 T02140181  RH  081%=      5-min Rain = 0
KMD1 270810Z 17009KT 21/18 A2992 RMK A01 T02130181  RH  082%=      5-min Rain = 0
KMD1 270811Z 19009KT 21/18 A2992 RMK A01 T02130180  RH  081%=      5-min Rain = 0
KMD1 270812Z 18008G13KT 21/18 A2992 RMK A01 T02130180  RH  081%=      5-min Rain = 0
KMD1 270813Z 18009KT 21/18 A2992 RMK A01 T02140179  RH  081%=      5-min Rain = 0
KMD1 270814Z 17009KT 21/18 A2992 RMK A01 T02140179  RH  081%=      5-min Rain = 0
KMD1 270815Z 18009KT 21/18 A2992 RMK A01 T02140180  RH  081%=      5-min Rain = 0
KMD1 270816Z 18010KT 21/18 A2992 RMK A01 T02140179  RH  081%=      5-min Rain = 0
KMD1 270817Z 19012G17KT 21/18 A2992 RMK A01 T02140179  RH  081%=      5-min Rain = 0
KMD1 270818Z 19010KT 21/18 A2992 RMK A01 T02130179  RH  080%=      5-min Rain = 0
KMD1 270819Z 19011KT 21/18 A2992 RMK A01 T02130179  RH  080%=      5-min Rain = 0
KMD1 270820Z 18011KT 21/18 A2992 RMK A01 T02140178  RH  080%=      5-min Rain = 0
KMD1 270821Z 18010KT 21/18 A2992 RMK A01 T02130178  RH  080%=      5-min Rain = 0
KMD1 270822Z 17011KT 21/18 A2992 RMK A01 T02130178  RH  080%=      5-min Rain = 0
KMD1 270823Z 18010KT 21/18 A2992 RMK A01 T02140178  RH  080%=      5-min Rain = 0
KMD1 270824Z 17012KT 21/18 A2992 RMK A01 T02140178  RH  080%=      5-min Rain = 0
KMD1 270825Z 18009KT 21/18 A2992 RMK A01 T02130178  RH  080%=      5-min Rain = 0
KMD1 270826Z 18010KT 21/18 A2992 RMK A01 T02130178  RH  080%=      5-min Rain = 0
KMD1 270827Z 18009KT 21/18 A2992 RMK A01 T02130178  RH  080%=      5-min Rain = 0
KMD1 270828Z 17010G15KT 21/18 A2992 RMK A01 T02130178  RH  081%=      5-min Rain = 0
KMD1 270829Z 17012G17KT 21/18 A2992 RMK A01 T02120177  RH  080%=      5-min Rain = 0
KMD1 270830Z 17012KT 21/18 A2992 RMK A01 T02130177  RH  080%=      5-min Rain = 0
KMD1 270831Z 17011KT 21/18 A2992 RMK A01 T02130177  RH  080%=      5-min Rain = 0
KMD1 270832Z 18011G17KT 21/18 A2992 RMK A01 T02130177  RH  080%=      5-min Rain = 0
KMD1 270833Z 18014KT 21/18 A2992 RMK A01 T02130176  RH  080%=      5-min Rain = 0
KMD1 270834Z 17011KT 21/18 A2992 RMK A01 T02130176  RH  079%=      5-min Rain = 0
KMD1 270835Z 17009KT 21/18 A2992 RMK A01 T02130176  RH  079%=      5-min Rain = 0
KMD1 270836Z 17011KT 21/18 A2992 RMK A01 T02130176  RH  080%=      5-min Rain = 0
KMD1 270837Z 17010KT 21/18 A2992 RMK A01 T02130176  RH  080%=      5-min Rain = 0
KMD1 270838Z 18010KT 21/18 A2992 RMK A01 T02120176  RH  080%=      5-min Rain = 0
KMD1 270839Z 18008KT 21/18 A2992 RMK A01 T02120176  RH  080%=      5-min Rain = 0
KMD1 270840Z 18009KT 21/18 A2992 RMK A01 T02120176  RH  080%=      5-min Rain = 0
KMD1 270841Z 17011KT 21/18 A2992 RMK A01 T02120175  RH  079%=      5-min Rain = 0
KMD1 270842Z 17011KT 21/18 A2992 RMK A01 T02120175  RH  079%=      5-min Rain = 0
KMD1 270843Z 17012KT 21/18 A2992 RMK A01 T02120175  RH  079%=      5-min Rain = 0
KMD1 270844Z 18013KT 21/18 A2992 RMK A01 T02120175  RH  080%=      5-min Rain = 0
KMD1 270845Z 16011KT 21/18 A2992 RMK A01 T02120175  RH  079%=      5-min Rain = 0
KMD1 270846Z 17009KT 21/18 A2992 RMK A01 T02120175  RH  079%=      5-min Rain = 0
KMD1 270847Z 17013KT 21/18 A2992 RMK A01 T02110175  RH  080%=      5-min Rain = 0
KMD1 270848Z 17012KT 21/17 A2992 RMK A01 T02110174  RH  079%=      5-min Rain = 0
KMD1 270849Z 17010KT 21/18 A2992 RMK A01 T02110175  RH  080%=      5-min Rain = 0
KMD1 270850Z 18010KT 21/17 A2992 RMK A01 T02110174  RH  080%=      5-min Rain = 0
KMD1 270851Z 18010KT 21/17 A2992 RMK A01 T02100174  RH  080%=      5-min Rain = 0
KMD1 270852Z 17009KT 21/18 A2992 RMK A01 T02100175  RH  080%=      5-min Rain = 0
KMD1 270853Z 17010KT 21/18 A2992 RMK A01 T02100175  RH  080%=      5-min Rain = 0
KMD1 270854Z 17013KT 21/17 A2992 RMK A01 T02090174  RH  081%=      5-min Rain = 0
KMD1 270855Z 16012KT 21/17 A2992 RMK A01 T02090174  RH  080%=      5-min Rain = 0
KMD1 270856Z 17011KT 21/17 A2992 RMK A01 T02090173  RH  080%=      5-min Rain = 0
KMD1 270857Z 18011KT 21/17 A2992 RMK A01 T02100174  RH  080%=      5-min Rain = 0
KMD1 270858Z 17010G15KT 21/17 A2992 RMK A01 T02090174  RH  080%=      5-min Rain = 0
KMD1 270859Z 17010KT 21/17 A2992 RMK A01 T02090174  RH  081%=      5-min Rain = 0
KMD1 270900Z 17011KT 21/17 A2992 RMK A01 T02090174  RH  081%=      5-min Rain = 0
KMD1 270901Z 16012KT 21/17 A2992 RMK A01 T02080173  RH  081%=      5-min Rain = 0
KMD1 270902Z 17009KT 21/17 A2992 RMK A01 T02090173  RH  080%=      5-min Rain = 0
KMD1 270903Z 18010KT 21/17 A2992 RMK A01 T02090174  RH  080%=      5-min Rain = 0
KMD1 270904Z 17010KT 21/17 A2992 RMK A01 T02090174  RH  081%=      5-min Rain = 0
KMD1 270905Z 17009KT 21/17 A2992 RMK A01 T02080174  RH  081%=      5-min Rain = 0
KMD1 270906Z 17011KT 21/17 A2992 RMK A01 T02080174  RH  081%=      5-min Rain = 0
KMD1 270907Z 17008KT 21/17 A2992 RMK A01 T02070173  RH  081%=      5-min Rain = 0
KMD1 270908Z 16008KT 21/17 A2992 RMK A01 T02070174  RH  081%=      5-min Rain = 0
KMD1 270909Z 16012KT 21/17 A2992 RMK A01 T02070174  RH  081%=      5-min Rain = 0
KMD1 270910Z 17010KT 21/17 A2992 RMK A01 T02070174  RH  081%=      5-min Rain = 0
KMD1 270911Z 17008KT 21/17 A2992 RMK A01 T02080174  RH  081%=      5-min Rain = 0
KMD1 270912Z 16010KT 21/17 A2992 RMK A01 T02070174  RH  081%=      5-min Rain = 0
KMD1 270913Z 16011KT 21/17 A2992 RMK A01 T02070173  RH  081%=      5-min Rain = 0
KMD1 270914Z 17009KT 21/17 A2992 RMK A01 T02080174  RH  081%=      5-min Rain = 0
KMD1 270915Z 17010KT 21/17 A2992 RMK A01 T02080174  RH  081%=      5-min Rain = 0
KMD1 270916Z 16012KT 21/17 A2992 RMK A01 T02070174  RH  081%=      5-min Rain = 0
KMD1 270917Z 16012KT 21/17 A2992 RMK A01 T02070174  RH  081%=      5-min Rain = 0
KMD1 270918Z 16011KT 21/17 A2992 RMK A01 T02070173  RH  081%=      5-min Rain = 0
KMD1 270919Z 18011KT 21/17 A2992 RMK A01 T02070173  RH  081%=      5-min Rain = 0
KMD1 270920Z 17011KT 21/17 A2992 RMK A01 T02080174  RH  081%=      5-min Rain = 0
KMD1 270921Z 17011KT 21/17 A2992 RMK A01 T02070173  RH  081%=      5-min Rain = 0
KMD1 270922Z 17009KT 21/17 A2992 RMK A01 T02080174  RH  081%=      5-min Rain = 0
KMD1 270923Z 16008KT 21/17 A2992 RMK A01 T02070174  RH  081%=      5-min Rain = 0
KMD1 270924Z 16009KT 21/17 A2992 RMK A01 T02070174  RH  082%=      5-min Rain = 0
KMD1 270925Z 16010KT 21/17 A2992 RMK A01 T02060174  RH  082%=      5-min Rain = 0
KMD1 270926Z 16010KT 21/17 A2992 RMK A01 T02050174  RH  082%=      5-min Rain = 0
KMD1 270927Z 17011KT 21/17 A2992 RMK A01 T02050174  RH  082%=      5-min Rain = 0
KMD1 270928Z 16011KT 21/17 A2992 RMK A01 T02050173  RH  082%=      5-min Rain = 0
KMD1 270929Z 16012KT 21/17 A2992 RMK A01 T02060173  RH  082%=      5-min Rain = 0
KMD1 270930Z 16010KT 21/17 A2992 RMK A01 T02060173  RH  082%=      5-min Rain = 0
KMD1 270931Z 17012KT 21/17 A2992 RMK A01 T02060173  RH  082%=      5-min Rain = 0
KMD1 270932Z 18011KT 21/17 A2992 RMK A01 T02060173  RH  082%=      5-min Rain = 0
KMD1 270933Z 17007KT 21/17 A2992 RMK A01 T02060174  RH  082%=      5-min Rain = 0
KMD1 270934Z 16009KT 21/17 A2992 RMK A01 T02060174  RH  082%=      5-min Rain = 0
KMD1 270935Z 17010KT 21/17 A2992 RMK A01 T02050174  RH  083%=      5-min Rain = 0
KMD1 270936Z 17011KT 20/17 A2992 RMK A01 T02040174  RH  083%=      5-min Rain = 0
KMD1 270937Z 17010KT 20/17 A2992 RMK A01 T02040174  RH  082%=      5-min Rain = 0
KMD1 270938Z 16010KT 20/17 A2992 RMK A01 T02040173  RH  082%=      5-min Rain = 0
KMD1 270939Z 16011KT 20/17 A2992 RMK A01 T02040174  RH  083%=      5-min Rain = 0
KMD1 270940Z 16011KT 20/17 A2992 RMK A01 T02040174  RH  082%=      5-min Rain = 0
KMD1 270941Z 17012KT 20/17 A2992 RMK A01 T02040174  RH  083%=      5-min Rain = 0
KMD1 270942Z 17010KT 21/17 A2992 RMK A01 T02050174  RH  082%=      5-min Rain = 0
KMD1 270943Z 17010G18KT 21/17 A2992 RMK A01 T02050174  RH  082%=      5-min Rain = 0
KMD1 270944Z 17013KT 21/17 A2992 RMK A01 T02050174  RH  083%=      5-min Rain = 0
KMD1 270945Z 17013KT 21/17 A2992 RMK A01 T02050174  RH  082%=      5-min Rain = 0
KMD1 270946Z 17013KT 21/17 A2992 RMK A01 T02050174  RH  082%=      5-min Rain = 0
KMD1 270947Z 17010KT 21/17 A2992 RMK A01 T02050174  RH  082%=      5-min Rain = 0
KMD1 270948Z 17010KT 21/17 A2992 RMK A01 T02050174  RH  082%=      5-min Rain = 0
KMD1 270949Z 17009KT 21/17 A2991 RMK A01 T02050174  RH  082%=      5-min Rain = 0
KMD1 270950Z 17008KT 21/17 A2991 RMK A01 T02050174  RH  083%=      5-min Rain = 0
KMD1 270951Z 17013G18KT 20/17 A2991 RMK A01 T02040174  RH  083%=      5-min Rain = 0
KMD1 270952Z 17013KT 20/17 A2991 RMK A01 T02040173  RH  083%=      5-min Rain = 0
KMD1 270953Z 17011KT 21/17 A2991 RMK A01 T02050174  RH  082%=      5-min Rain = 0
KMD1 270954Z 17011KT 21/17 A2992 RMK A01 T02050174  RH  082%=      5-min Rain = 0
KMD1 270955Z 17011KT 21/17 A2992 RMK A01 T02050174  RH  083%=      5-min Rain = 0
KMD1 270956Z 17014KT 20/17 A2992 RMK A01 T02040174  RH  083%=      5-min Rain = 0
KMD1 270957Z 16014KT 20/17 A2991 RMK A01 T02040174  RH  083%=      5-min Rain = 0
KMD1 270958Z 17012KT 21/17 A2992 RMK A01 T02050174  RH  082%=      5-min Rain = 0
KMD1 270959Z 17011G16KT 21/17 A2992 RMK A01 T02050174  RH  082%=      5-min Rain = 0
KMD1 271000Z 16009KT 21/17 A2992 RMK A01 T02050174  RH  082%=      5-min Rain = 0
KMD1 271001Z 16012KT 21/17 A2992 RMK A01 T02050174  RH  082%=      5-min Rain = 0
KMD1 271002Z 16010KT 21/17 A2992 RMK A01 T02050174  RH  083%=      5-min Rain = 0
KMD1 271003Z 17009KT 20/17 A2992 RMK A01 T02040174  RH  083%=      5-min Rain = 0
KMD1 271004Z 17012KT 20/17 A2991 RMK A01 T02040174  RH  083%=      5-min Rain = 0
KMD1 271005Z 17012KT 20/17 A2991 RMK A01 T02040174  RH  083%=      5-min Rain = 0
KMD1 271006Z 16011KT 20/17 A2992 RMK A01 T02040174  RH  083%=      5-min Rain = 0
KMD1 271007Z 17011KT 20/17 A2992 RMK A01 T02040174  RH  083%=      5-min Rain = 0
KMD1 271008Z 17013KT 20/17 A2992 RMK A01 T02040174  RH  083%=      5-min Rain = 0
KMD1 271009Z 17010KT 20/17 A2992 RMK A01 T02040173  RH  082%=      5-min Rain = 0
KMD1 271010Z 17008KT 21/17 A2992 RMK A01 T02050174  RH  082%=      5-min Rain = 0
KMD1 271011Z 17010KT 21/17 A2992 RMK A01 T02050174  RH  083%=      5-min Rain = 0
KMD1 271012Z 17009KT 20/17 A2992 RMK A01 T02040174  RH  083%=      5-min Rain = 0
KMD1 271013Z 16008KT 20/17 A2992 RMK A01 T02040174  RH  083%=      5-min Rain = 0
KMD1 271014Z 17008KT 20/17 A2992 RMK A01 T02040174  RH  083%=      5-min Rain = 0
KMD1 271015Z 17010G15KT 20/17 A2992 RMK A01 T02040174  RH  083%=      5-min Rain = 0
KMD1 271016Z 16009KT 20/17 A2992 RMK A01 T02040174  RH  083%=      5-min Rain = 0
KMD1 271017Z 17009KT 20/17 A2992 RMK A01 T02030173  RH  083%=      5-min Rain = 0
KMD1 271018Z 17009KT 20/17 A2992 RMK A01 T02030174  RH  083%=      5-min Rain = 0
KMD1 271019Z 16008KT 20/17 A2992 RMK A01 T02030174  RH  083%=      5-min Rain = 0
KMD1 271020Z 16009KT 20/17 A2992 RMK A01 T02030174  RH  083%=      5-min Rain = 0
KMD1 271021Z 17009KT 20/17 A2992 RMK A01 T02030174  RH  083%=      5-min Rain = 0
KMD1 271022Z 17008KT 20/17 A2992 RMK A01 T02030174  RH  083%=      5-min Rain = 0
KMD1 271023Z 17007KT 20/17 A2992 RMK A01 T02030174  RH  084%=      5-min Rain = 0
KMD1 271024Z 16011KT 20/17 A2992 RMK A01 T02020174  RH  084%=      5-min Rain = 0
KMD1 271025Z 18007KT 20/17 A2992 RMK A01 T02020174  RH  084%=      5-min Rain = 0
KMD1 271026Z 18007KT 20/17 A2992 RMK A01 T02030174  RH  084%=      5-min Rain = 0
KMD1 271027Z 17011KT 20/17 A2992 RMK A01 T02020174  RH  084%=      5-min Rain = 0
KMD1 271028Z 18008KT 20/17 A2992 RMK A01 T02020173  RH  083%=      5-min Rain = 0
KMD1 271029Z 17010KT 20/17 A2992 RMK A01 T02030173  RH  083%=      5-min Rain = 0
KMD1 271030Z 18012KT 20/17 A2992 RMK A01 T02030174  RH  083%=      5-min Rain = 0
KMD1 271031Z 17010KT 20/17 A2992 RMK A01 T02030173  RH  083%=      5-min Rain = 0
KMD1 271032Z 17010KT 20/17 A2992 RMK A01 T02030173  RH  083%=      5-min Rain = 0
KMD1 271033Z 17010KT 20/17 A2992 RMK A01 T02030174  RH  083%=      5-min Rain = 0
KMD1 271034Z 17010KT 20/17 A2992 RMK A01 T02030174  RH  083%=      5-min Rain = 0
KMD1 271035Z 18008KT 20/17 A2992 RMK A01 T02030173  RH  083%=      5-min Rain = 0
KMD1 271036Z 17011KT 20/17 A2992 RMK A01 T02030174  RH  083%=      5-min Rain = 0
KMD1 271037Z 18010KT 20/17 A2992 RMK A01 T02030174  RH  083%=      5-min Rain = 0
KMD1 271038Z 17012KT 20/17 A2992 RMK A01 T02030174  RH  083%=      5-min Rain = 0
KMD1 271039Z 17010KT 20/17 A2992 RMK A01 T02030173  RH  083%=      5-min Rain = 0
KMD1 271040Z 17009KT 20/17 A2992 RMK A01 T02030173  RH  083%=      5-min Rain = 0
KMD1 271041Z 17011KT 20/17 A2992 RMK A01 T02030174  RH  083%=      5-min Rain = 0
KMD1 271042Z 17011KT 20/17 A2992 RMK A01 T02020174  RH  083%=      5-min Rain = 0
KMD1 271043Z 17011KT 20/17 A2992 RMK A01 T02020173  RH  083%=      5-min Rain = 0
KMD1 271044Z 17010KT 20/17 A2992 RMK A01 T02030173  RH  083%=      5-min Rain = 0
KMD1 271045Z 18009KT 20/17 A2992 RMK A01 T02030174  RH  083%=      5-min Rain = 0
KMD1 271046Z 17008KT 20/17 A2992 RMK A01 T02030174  RH  083%=      5-min Rain = 0
KMD1 271047Z 17009KT 20/17 A2992 RMK A01 T02020174  RH  083%=      5-min Rain = 0
KMD1 271048Z 18009KT 20/17 A2992 RMK A01 T02020173  RH  083%=      5-min Rain = 0
KMD1 271049Z 18009KT 20/17 A2992 RMK A01 T02030174  RH  083%=      5-min Rain = 0
KMD1 271050Z 17010KT 20/17 A2992 RMK A01 T02020173  RH  083%=      5-min Rain = 0
KMD1 271051Z 17012KT 20/17 A2992 RMK A01 T02030174  RH  083%=      5-min Rain = 0
KMD1 271052Z 17011KT 20/17 A2992 RMK A01 T02030173  RH  083%=      5-min Rain = 0
KMD1 271053Z 17010KT 20/17 A2992 RMK A01 T02030174  RH  083%=      5-min Rain = 0
KMD1 271054Z 17009KT 20/17 A2992 RMK A01 T02030173  RH  083%=      5-min Rain = 0
KMD1 271055Z 18010KT 20/17 A2992 RMK A01 T02020173  RH  083%=      5-min Rain = 0
KMD1 271056Z 17008KT 20/17 A2992 RMK A01 T02020173  RH  083%=      5-min Rain = 0
KMD1 271057Z 17007KT 20/17 A2992 RMK A01 T02020174  RH  084%=      5-min Rain = 0
KMD1 271058Z 17007KT 20/17 A2992 RMK A01 T02010173  RH  084%=      5-min Rain = 0
KMD1 271059Z 17009KT 20/17 A2992 RMK A01 T02010173  RH  084%=      5-min Rain = 0
KMD1 271100Z 18009KT 20/17 A2992 RMK A01 T02010173  RH  084%=      5-min Rain = 0
KMD1 271101Z 17008KT 20/17 A2992 RMK A01 T02020173  RH  083%=      5-min Rain = 0
KMD1 271102Z 17008KT 20/17 A2992 RMK A01 T02020173  RH  083%=      5-min Rain = 0
KMD1 271103Z 17008KT 20/17 A2992 RMK A01 T02020173  RH  083%=      5-min Rain = 0
KMD1 271104Z 18010KT 20/17 A2992 RMK A01 T02020173  RH  084%=      5-min Rain = 0
KMD1 271105Z 17008KT 20/17 A2993 RMK A01 T02020173  RH  083%=      5-min Rain = 0
KMD1 271106Z 17008KT 20/17 A2992 RMK A01 T02020173  RH  083%=      5-min Rain = 0
KMD1 271107Z 17008KT 20/17 A2993 RMK A01 T02020173  RH  083%=      5-min Rain = 0
KMD1 271108Z 17008KT 20/17 A2992 RMK A01 T02020173  RH  084%=      5-min Rain = 0
KMD1 271109Z 16009KT 20/17 A2992 RMK A01 T02020173  RH  084%=      5-min Rain = 0
KMD1 271110Z 16009KT 20/17 A2992 RMK A01 T02010173  RH  084%=      5-min Rain = 0
KMD1 271111Z 17008KT 20/17 A2993 RMK A01 T02010173  RH  084%=      5-min Rain = 0
KMD1 271112Z 17009KT 20/17 A2993 RMK A01 T02010173  RH  084%=      5-min Rain = 0
KMD1 271113Z 17010KT 20/17 A2993 RMK A01 T02010173  RH  084%=      5-min Rain = 0
KMD1 271114Z 16009KT 20/17 A2993 RMK A01 T02010173  RH  084%=      5-min Rain = 0
KMD1 271115Z 17010KT 20/17 A2993 RMK A01 T02010173  RH  084%=      5-min Rain = 0
KMD1 271116Z 17007KT 20/17 A2993 RMK A01 T02010173  RH  084%=      5-min Rain = 0
KMD1 271117Z 17006KT 20/17 A2993 RMK A01 T02010173  RH  084%=      5-min Rain = 0
KMD1 271118Z 16008KT 20/17 A2993 RMK A01 T02000173  RH  084%=      5-min Rain = 0
KMD1 271119Z 17008KT 20/17 A2993 RMK A01 T02000173  RH  085%=      5-min Rain = 0
KMD1 271120Z 17008KT 20/17 A2993 RMK A01 T01990173  RH  085%=      5-min Rain = 0
KMD1 271121Z 17007KT 20/17 A2992 RMK A01 T02000173  RH  084%=      5-min Rain = 0
KMD1 271122Z 17007KT 20/17 A2993 RMK A01 T02000173  RH  084%=      5-min Rain = 0
KMD1 271123Z 17007KT 20/17 A2993 RMK A01 T02000173  RH  085%=      5-min Rain = 0
KMD1 271124Z 17007KT 20/17 A2993 RMK A01 T01990173  RH  085%=      5-min Rain = 0
KMD1 271125Z 18007KT 20/17 A2993 RMK A01 T01990173  RH  085%=      5-min Rain = 0
KMD1 271126Z 17008KT 20/17 A2993 RMK A01 T01990173  RH  085%=      5-min Rain = 0
KMD1 271127Z 17007KT 20/17 A2993 RMK A01 T01990173  RH  085%=      5-min Rain = 0
KMD1 271128Z 17009KT 20/17 A2993 RMK A01 T01990173  RH  085%=      5-min Rain = 0
KMD1 271129Z 17009KT 20/17 A2993 RMK A01 T02000173  RH  084%=      5-min Rain = 0
KMD1 271130Z 18010KT 20/17 A2993 RMK A01 T02000173  RH  084%=      5-min Rain = 0
KMD1 271131Z 18009KT 20/17 A2993 RMK A01 T02000173  RH  084%=      5-min Rain = 0
KMD1 271132Z 17008KT 20/17 A2993 RMK A01 T02000173  RH  084%=      5-min Rain = 0
KMD1 271133Z 17007KT 20/17 A2993 RMK A01 T02000173  RH  084%=      5-min Rain = 0
KMD1 271134Z 17009KT 20/17 A2993 RMK A01 T02000173  RH  085%=      5-min Rain = 0
KMD1 271135Z 17008KT 20/17 A2993 RMK A01 T02000173  RH  085%=      5-min Rain = 0
KMD1 271136Z 17006KT 20/17 A2993 RMK A01 T01990173  RH  085%=      5-min Rain = 0
KMD1 271137Z 17009KT 20/17 A2993 RMK A01 T01990173  RH  085%=      5-min Rain = 0
KMD1 271138Z 17010KT 20/17 A2993 RMK A01 T01990173  RH  085%=      5-min Rain = 0
KMD1 271139Z 17008KT 20/17 A2993 RMK A01 T01990172  RH  084%=      5-min Rain = 0
KMD1 271140Z 17007KT 20/17 A2993 RMK A01 T02000173  RH  084%=      5-min Rain = 0
KMD1 271141Z 17008KT 20/17 A2993 RMK A01 T02000173  RH  084%=      5-min Rain = 0
KMD1 271142Z 16008KT 20/17 A2993 RMK A01 T02000172  RH  084%=      5-min Rain = 0
KMD1 271143Z 17007KT 20/17 A2993 RMK A01 T02000173  RH  084%=      5-min Rain = 0
KMD1 271144Z 17008KT 20/17 A2993 RMK A01 T02000173  RH  085%=      5-min Rain = 0
KMD1 271145Z 17007KT 20/17 A2993 RMK A01 T01990172  RH  084%=      5-min Rain = 0
KMD1 271146Z 16008KT 20/17 A2993 RMK A01 T01990173  RH  085%=      5-min Rain = 0
KMD1 271147Z 17008KT 20/17 A2993 RMK A01 T01990172  RH  085%=      5-min Rain = 0
KMD1 271148Z 17008KT 20/17 A2993 RMK A01 T01990172  RH  084%=      5-min Rain = 0
KMD1 271149Z 17008KT 20/17 A2993 RMK A01 T01990172  RH  084%=      5-min Rain = 0
KMD1 271150Z 17008KT 20/17 A2993 RMK A01 T02000172  RH  084%=      5-min Rain = 0
KMD1 271151Z 17006KT 20/17 A2993 RMK A01 T02000172  RH  084%=      5-min Rain = 0
KMD1 271152Z 17007KT 20/17 A2993 RMK A01 T02000172  RH  084%=      5-min Rain = 0
KMD1 271153Z 17006KT 20/17 A2993 RMK A01 T02000173  RH  084%=      5-min Rain = 0
KMD1 271154Z 17006KT 20/17 A2993 RMK A01 T01990172  RH  085%=      5-min Rain = 0
KMD1 271155Z 18006KT 20/17 A2993 RMK A01 T01990173  RH  085%=      5-min Rain = 0
KMD1 271156Z 18007KT 20/17 A2993 RMK A01 T01980172  RH  085%=      5-min Rain = 0
KMD1 271157Z 18007KT 20/17 A2993 RMK A01 T01990172  RH  085%=      5-min Rain = 0
KMD1 271158Z 17008KT 20/17 A2993 RMK A01 T01990172  RH  084%=      5-min Rain = 0
KMD1 271159Z 18007KT 20/17 A2993 RMK A01 T01990172  RH  084%=      5-min Rain = 0
KMD1 271200Z 18005KT 20/17 A2993 RMK A01 T01990172  RH  084%=      5-min Rain = 0
KMD1 271201Z 17006KT 20/17 A2993 RMK A01 T01990172  RH  084%=      5-min Rain = 0
KMD1 271202Z 17006KT 20/17 A2993 RMK A01 T01990172  RH  085%=      5-min Rain = 0
KMD1 271203Z 17007KT 20/17 A2993 RMK A01 T01990172  RH  085%=      5-min Rain = 0
KMD1 271204Z 17007KT 20/17 A2993 RMK A01 T01990172  RH  085%=      5-min Rain = 0
KMD1 271205Z 17007KT 20/17 A2993 RMK A01 T01990172  RH  085%=      5-min Rain = 0
KMD1 271206Z 17007KT 20/17 A2993 RMK A01 T01990172  RH  085%=      5-min Rain = 0
KMD1 271207Z 17009KT 20/17 A2993 RMK A01 T01990172  RH  085%=      5-min Rain = 0
KMD1 271208Z 17007KT 20/17 A2994 RMK A01 T01990172  RH  084%=      5-min Rain = 0
KMD1 271209Z 17006KT 20/17 A2994 RMK A01 T01990172  RH  084%=      5-min Rain = 0
KMD1 271210Z 17007KT 20/17 A2994 RMK A01 T01990173  RH  085%=      5-min Rain = 0
KMD1 271211Z 18007KT 20/17 A2993 RMK A01 T01990173  RH  085%=      5-min Rain = 0
KMD1 271212Z 17007KT 20/17 A2993 RMK A01 T01990172  RH  084%=      5-min Rain = 0
KMD1 271213Z 17007KT 20/17 A2993 RMK A01 T01990172  RH  085%=      5-min Rain = 0
KMD1 271214Z 17007KT 20/17 A2993 RMK A01 T01990173  RH  085%=      5-min Rain = 0
KMD1 271215Z 17007KT 20/17 A2993 RMK A01 T01990173  RH  085%=      5-min Rain = 0
KMD1 271216Z 18007KT 20/17 A2993 RMK A01 T01990174  RH  085%=      5-min Rain = 0
KMD1 271217Z 17008KT 20/17 A2993 RMK A01 T01990173  RH  085%=      5-min Rain = 0
KMD1 271218Z 18008KT 20/17 A2994 RMK A01 T01990172  RH  085%=      5-min Rain = 0
KMD1 271219Z 17006KT 20/17 A2994 RMK A01 T01990173  RH  085%=      5-min Rain = 0
KMD1 271220Z 18007KT 20/17 A2994 RMK A01 T01990173  RH  085%=      5-min Rain = 0
KMD1 271221Z 18005KT 20/17 A2994 RMK A01 T02000173  RH  085%=      5-min Rain = 0
KMD1 271222Z 17006KT 20/17 A2994 RMK A01 T02000173  RH  085%=      5-min Rain = 0
KMD1 271223Z 17007KT 20/17 A2994 RMK A01 T02000174  RH  085%=      5-min Rain = 0
KMD1 271224Z 18006KT 20/17 A2994 RMK A01 T02000174  RH  085%=      5-min Rain = 0
KMD1 271225Z 17006KT 20/17 A2994 RMK A01 T02000174  RH  085%=      5-min Rain = 0
KMD1 271226Z 18008KT 20/17 A2994 RMK A01 T02000173  RH  085%=      5-min Rain = 0
KMD1 271227Z 18008KT 20/17 A2994 RMK A01 T02000173  RH  084%=      5-min Rain = 0
KMD1 271228Z 18008KT 20/17 A2994 RMK A01 T02010173  RH  084%=      5-min Rain = 0
KMD1 271229Z 18009KT 20/17 A2994 RMK A01 T02010173  RH  084%=      5-min Rain = 0
KMD1 271230Z 18007KT 20/17 A2994 RMK A01 T02010173  RH  084%=      5-min Rain = 0
KMD1 271231Z 18006KT 20/17 A2994 RMK A01 T02010173  RH  084%=      5-min Rain = 0
KMD1 271232Z 18006KT 20/17 A2994 RMK A01 T02020174  RH  084%=      5-min Rain = 0
KMD1 271233Z 18008KT 20/17 A2994 RMK A01 T02020174  RH  084%=      5-min Rain = 0
KMD1 271234Z 17007KT 20/17 A2994 RMK A01 T02020174  RH  084%=      5-min Rain = 0
KMD1 271235Z 18006KT 20/17 A2994 RMK A01 T02020174  RH  084%=      5-min Rain = 0
KMD1 271236Z 18005KT 20/18 A2994 RMK A01 T02020175  RH  084%=      5-min Rain = 0
KMD1 271237Z 16005KT 20/18 A2994 RMK A01 T02010175  RH  085%=      5-min Rain = 0
KMD1 271238Z 18004KT 20/18 A2994 RMK A01 T02020175  RH  085%=      5-min Rain = 0
KMD1 271239Z 18006KT 20/18 A2994 RMK A01 T02020175  RH  085%=      5-min Rain = 0
KMD1 271240Z 17007KT 20/18 A2994 RMK A01 T02020175  RH  085%=      5-min Rain = 0
KMD1 271241Z 17008KT 20/17 A2994 RMK A01 T02020174  RH  084%=      5-min Rain = 0
KMD1 271242Z 17008KT 20/17 A2994 RMK A01 T02020174  RH  084%=      5-min Rain = 0
KMD1 271243Z 19009KT 20/17 A2994 RMK A01 T02020173  RH  084%=      5-min Rain = 0
KMD1 271244Z 19009KT 20/17 A2994 RMK A01 T02020172  RH  083%=      5-min Rain = 0
KMD1 271245Z 18009KT 20/17 A2994 RMK A01 T02030173  RH  083%=      5-min Rain = 0
KMD1 271246Z 17009KT 20/17 A2994 RMK A01 T02030173  RH  082%=      5-min Rain = 0
KMD1 271247Z 17009KT 20/17 A2994 RMK A01 T02040173  RH  083%=      5-min Rain = 0
KMD1 271248Z 18008KT 20/18 A2994 RMK A01 T02040175  RH  083%=      5-min Rain = 0
KMD1 271249Z 18008KT 20/17 A2994 RMK A01 T02040174  RH  083%=      5-min Rain = 0
KMD1 271250Z 18006KT 20/17 A2994 RMK A01 T02040173  RH  082%=      5-min Rain = 0
KMD1 271251Z 17006KT 20/17 A2994 RMK A01 T02040173  RH  082%=      5-min Rain = 0
KMD1 271252Z 18006KT 20/17 A2994 RMK A01 T02040174  RH  082%=      5-min Rain = 0
KMD1 271253Z 18010KT 20/17 A2994 RMK A01 T02040174  RH  083%=      5-min Rain = 0
KMD1 271254Z 18009KT 20/17 A2994 RMK A01 T02040173  RH  082%=      5-min Rain = 0
KMD1 271255Z 18008KT 21/17 A2994 RMK A01 T02050173  RH  082%=      5-min Rain = 0
KMD1 271256Z 18009KT 21/17 A2994 RMK A01 T02050173  RH  082%=      5-min Rain = 0
KMD1 271257Z 17010KT 21/17 A2994 RMK A01 T02050173  RH  082%=      5-min Rain = 0
KMD1 271258Z 18009G14KT 21/17 A2994 RMK A01 T02050173  RH  082%=      5-min Rain = 0
KMD1 271259Z 17011KT 21/17 A2994 RMK A01 T02050172  RH  081%=      5-min Rain = 0
KMD1 271300Z 18008KT 21/17 A2994 RMK A01 T02060172  RH  081%=      5-min Rain = 0
KMD1 271301Z 18009KT 21/17 A2994 RMK A01 T02060172  RH  081%=      5-min Rain = 0
KMD1 271302Z 17007KT 21/17 A2994 RMK A01 T02060172  RH  081%=      5-min Rain = 0
KMD1 271303Z 17007KT 21/17 A2995 RMK A01 T02060174  RH  082%=      5-min Rain = 0
KMD1 271304Z 18008KT 21/17 A2995 RMK A01 T02060173  RH  081%=      5-min Rain = 0
KMD1 271305Z 17007KT 21/17 A2995 RMK A01 T02060174  RH  082%=      5-min Rain = 0
KMD1 271306Z 18008KT 21/17 A2995 RMK A01 T02060173  RH  081%=      5-min Rain = 0
KMD1 271307Z 17010KT 21/17 A2995 RMK A01 T02060172  RH  081%=      5-min Rain = 0
KMD1 271308Z 19009KT 21/17 A2995 RMK A01 T02070173  RH  081%=      5-min Rain = 0
KMD1 271309Z 18010KT 21/17 A2995 RMK A01 T02070172  RH  081%=      5-min Rain = 0
KMD1 271310Z 17006KT 21/17 A2995 RMK A01 T02070174  RH  082%=      5-min Rain = 0
KMD1 271311Z 17008KT 21/17 A2995 RMK A01 T02070174  RH  081%=      5-min Rain = 0
KMD1 271312Z 17008KT 21/17 A2995 RMK A01 T02080173  RH  081%=      5-min Rain = 0
KMD1 271313Z 18004KT 21/17 A2995 RMK A01 T02080173  RH  080%=      5-min Rain = 0
KMD1 271314Z 17006KT 21/17 A2995 RMK A01 T02080174  RH  081%=      5-min Rain = 0
KMD1 271315Z 17009KT 21/17 A2996 RMK A01 T02090174  RH  080%=      5-min Rain = 0
KMD1 271316Z 18007KT 21/17 A2996 RMK A01 T02090174  RH  081%=      5-min Rain = 0
KMD1 271317Z 20006KT 21/17 A2996 RMK A01 T02090174  RH  080%=      5-min Rain = 0
KMD1 271318Z 19006KT 21/17 A2996 RMK A01 T02090173  RH  080%=      5-min Rain = 0
KMD1 271319Z 24003KT 21/17 A2996 RMK A01 T02090172  RH  079%=      5-min Rain = 0
KMD1 271320Z 20005KT 21/17 A2996 RMK A01 T02090174  RH  080%=      5-min Rain = 0
KMD1 271321Z 22004KT 21/17 A2996 RMK A01 T02100174  RH  080%=      5-min Rain = 0
KMD1 271322Z 17001KT 21/18 A2996 RMK A01 T02100175  RH  080%=      5-min Rain = 0
KMD1 271323Z 20002KT 21/17 A2997 RMK A01 T02110174  RH  079%=      5-min Rain = 0
KMD1 271324Z 19002KT 21/17 A2997 RMK A01 T02110174  RH  079%=      5-min Rain = 0
KMD1 271325Z 22001KT 21/17 A2997 RMK A01 T02110174  RH  079%=      5-min Rain = 0
KMD1 271326Z 19002KT 21/17 A2997 RMK A01 T02120174  RH  079%=      5-min Rain = 0
KMD1 271327Z 21002KT 21/18 A2997 RMK A01 T02120175  RH  080%=      5-min Rain = 0
KMD1 271328Z 20002KT 21/18 A2997 RMK A01 T02130177  RH  080%=      5-min Rain = 0
KMD1 271329Z 17004KT 21/18 A2997 RMK A01 T02130179  RH  081%=      5-min Rain = 0
KMD1 271330Z 16004KT 21/18 A2997 RMK A01 T02140176  RH  079%=      5-min Rain = 0
KMD1 271331Z 20005KT 21/18 A2997 RMK A01 T02140176  RH  079%=      5-min Rain = 0
KMD1 271332Z 19006KT 21/18 A2997 RMK A01 T02140176  RH  079%=      5-min Rain = 0
KMD1 271333Z 19006KT 22/18 A2996 RMK A01 T02150175  RH  078%=      5-min Rain = 0
KMD1 271334Z 18010KT 22/18 A2996 RMK A01 T02150177  RH  079%=      5-min Rain = 0
KMD1 271335Z 18009KT 22/18 A2996 RMK A01 T02160176  RH  078%=      5-min Rain = 0
KMD1 271336Z 17008KT 22/18 A2996 RMK A01 T02160178  RH  078%=      5-min Rain = 0
KMD1 271337Z 17008KT 22/18 A2996 RMK A01 T02170176  RH  078%=      5-min Rain = 0
KMD1 271338Z 19007KT 22/18 A2996 RMK A01 T02170178  RH  078%=      5-min Rain = 0
KMD1 271339Z 17010KT 22/18 A2996 RMK A01 T02170177  RH  078%=      5-min Rain = 0
KMD1 271340Z 18008KT 22/18 A2996 RMK A01 T02170178  RH  078%=      5-min Rain = 0
KMD1 271341Z 18007KT 22/18 A2996 RMK A01 T02170178  RH  079%=      5-min Rain = 0
KMD1 271342Z 19008KT 22/18 A2996 RMK A01 T02170179  RH  079%=      5-min Rain = 0
KMD1 271343Z 18007KT 22/18 A2996 RMK A01 T02160178  RH  079%=      5-min Rain = 0
KMD1 271344Z 18008KT 22/18 A2996 RMK A01 T02160178  RH  079%=      5-min Rain = 0
KMD1 271345Z 18006KT 22/18 A2996 RMK A01 T02160178  RH  079%=      5-min Rain = 0
KMD1 271346Z 18007KT 22/18 A2996 RMK A01 T02160178  RH  079%=      5-min Rain = 0
KMD1 271347Z 17008KT 22/18 A2996 RMK A01 T02160179  RH  079%=      5-min Rain = 0
KMD1 271348Z 19007KT 22/18 A2997 RMK A01 T02170179  RH  079%=      5-min Rain = 0
KMD1 271349Z 17006KT 22/18 A2997 RMK A01 T02170179  RH  079%=      5-min Rain = 0
KMD1 271350Z 17005KT 22/18 A2997 RMK A01 T02170177  RH  078%=      5-min Rain = 0
KMD1 271351Z 17006KT 22/18 A2997 RMK A01 T02170178  RH  078%=      5-min Rain = 0
KMD1 271352Z 17005KT 22/18 A2997 RMK A01 T02170180  RH  079%=      5-min Rain = 0
KMD1 271353Z 16006G12KT 22/18 A2997 RMK A01 T02170179  RH  079%=      5-min Rain = 0
KMD1 271354Z 16008KT 22/18 A2997 RMK A01 T02170176  RH  078%=      5-min Rain = 0
KMD1 271355Z 17009KT 22/18 A2997 RMK A01 T02170175  RH  077%=      5-min Rain = 0
KMD1 271356Z 17009KT 22/18 A2997 RMK A01 T02160175  RH  077%=      5-min Rain = 0
KMD1 271357Z 18012KT 22/18 A2997 RMK A01 T02160175  RH  077%=      5-min Rain = 0
KMD1 271358Z 17014KT 22/17 A2997 RMK A01 T02170174  RH  077%=      5-min Rain = 0
KMD1 271359Z 18011KT 22/17 A2997 RMK A01 T02170174  RH  076%=      5-min Rain = 0
KMD1 271400Z 18010KT 22/17 A2997 RMK A01 T02170174  RH  076%=      5-min Rain = 0
KMD1 271401Z 17012KT 22/18 A2996 RMK A01 T02170175  RH  077%=      5-min Rain = 0
KMD1 271402Z 18011KT 22/17 A2996 RMK A01 T02180174  RH  076%=      5-min Rain = 0
KMD1 271403Z 17011KT 22/17 A2996 RMK A01 T02180173  RH  076%=      5-min Rain = 0
KMD1 271404Z 17010KT 22/18 A2996 RMK A01 T02180175  RH  076%=      5-min Rain = 0
KMD1 271405Z 17011KT 22/18 A2996 RMK A01 T02180175  RH  076%=      5-min Rain = 0
KMD1 271406Z 18011KT 22/17 A2996 RMK A01 T02180174  RH  076%=      5-min Rain = 0
KMD1 271407Z 18009KT 22/17 A2996 RMK A01 T02180173  RH  076%=      5-min Rain = 0
KMD1 271408Z 18011KT 22/17 A2996 RMK A01 T02180174  RH  076%=      5-min Rain = 0
KMD1 271409Z 19009KT 22/17 A2996 RMK A01 T02180172  RH  075%=      5-min Rain = 0
KMD1 271410Z 19009KT 22/17 A2996 RMK A01 T02190173  RH  075%=      5-min Rain = 0
KMD1 271411Z 18010G15KT 22/18 A2996 RMK A01 T02200175  RH  075%=      5-min Rain = 0
KMD1 271412Z 17010KT 22/17 A2996 RMK A01 T02220174  RH  074%=      5-min Rain = 0
KMD1 271413Z 18013KT 22/17 A2996 RMK A01 T02230173  RH  073%=      5-min Rain = 0
KMD1 271414Z 18012KT 22/17 A2996 RMK A01 T02230173  RH  073%=      5-min Rain = 0
KMD1 271415Z 18012KT 22/17 A2996 RMK A01 T02230174  RH  074%=      5-min Rain = 0
KMD1 271416Z 18010KT 22/17 A2996 RMK A01 T02230173  RH  073%=      5-min Rain = 0
KMD1 271417Z 18012KT 22/17 A2996 RMK A01 T02230172  RH  073%=      5-min Rain = 0
KMD1 271418Z 18010KT 22/17 A2996 RMK A01 T02240171  RH  072%=      5-min Rain = 0
KMD1 271419Z 17009KT 22/17 A2996 RMK A01 T02240174  RH  073%=      5-min Rain = 0
KMD1 271420Z 18010KT 23/17 A2996 RMK A01 T02260174  RH  073%=      5-min Rain = 0
KMD1 271421Z 17009KT 23/17 A2996 RMK A01 T02270174  RH  072%=      5-min Rain = 0
KMD1 271422Z 17007KT 23/18 A2996 RMK A01 T02270177  RH  073%=      5-min Rain = 0
KMD1 271423Z 19007KT 23/18 A2997 RMK A01 T02280176  RH  072%=      5-min Rain = 0
KMD1 271424Z 18008KT 23/18 A2997 RMK A01 T02290175  RH  072%=      5-min Rain = 0
KMD1 271425Z 19009KT 23/18 A2997 RMK A01 T02290176  RH  072%=      5-min Rain = 0
KMD1 271426Z 17010KT 23/18 A2996 RMK A01 T02280176  RH  072%=      5-min Rain = 0
KMD1 271427Z 17012KT 23/18 A2996 RMK A01 T02280175  RH  072%=      5-min Rain = 0
KMD1 271428Z 17010G15KT 23/17 A2996 RMK A01 T02290174  RH  071%=      5-min Rain = 0
KMD1 271429Z 16013KT 23/17 A2996 RMK A01 T02300173  RH  070%=      5-min Rain = 0
KMD1 271430Z 17009KT 23/18 A2996 RMK A01 T02300176  RH  071%=      5-min Rain = 0
KMD1 271431Z 18008KT 23/17 A2996 RMK A01 T02310174  RH  070%=      5-min Rain = 0
KMD1 271432Z 17009KT 23/18 A2996 RMK A01 T02320177  RH  071%=      5-min Rain = 0
KMD1 271433Z 17010KT 23/18 A2996 RMK A01 T02330177  RH  071%=      5-min Rain = 0
KMD1 271434Z 18009KT 23/18 A2996 RMK A01 T02330176  RH  070%=      5-min Rain = 0
KMD1 271435Z 18007KT 23/18 A2996 RMK A01 T02330177  RH  071%=      5-min Rain = 0
KMD1 271436Z 17010KT 23/18 A2996 RMK A01 T02320178  RH  071%=      5-min Rain = 0
KMD1 271437Z 18011KT 23/17 A2996 RMK A01 T02310171  RH  069%=      5-min Rain = 0
KMD1 271438Z 18011KT 23/17 A2996 RMK A01 T02290172  RH  070%=      5-min Rain = 0
KMD1 271439Z 18011KT 23/17 A2996 RMK A01 T02280171  RH  070%=      5-min Rain = 0
KMD1 271440Z 19011KT 23/17 A2996 RMK A01 T02280171  RH  070%=      5-min Rain = 0
KMD1 271441Z 18010KT 23/17 A2996 RMK A01 T02280171  RH  070%=      5-min Rain = 0
KMD1 271442Z 17010KT 23/17 A2996 RMK A01 T02290169  RH  069%=      5-min Rain = 0
KMD1 271443Z 19010KT 23/17 A2996 RMK A01 T02290171  RH  070%=      5-min Rain = 0
KMD1 271444Z 18010KT 23/17 A2996 RMK A01 T02300173  RH  070%=      5-min Rain = 0
KMD1 271445Z 18010KT 23/17 A2996 RMK A01 T02310173  RH  070%=      5-min Rain = 0
KMD1 271446Z 18009KT 23/17 A2996 RMK A01 T02320173  RH  069%=      5-min Rain = 0
KMD1 271447Z 19007KT 23/18 A2996 RMK A01 T02320176  RH  071%=      5-min Rain = 0
KMD1 271448Z 20008KT 23/17 A2996 RMK A01 T02320173  RH  069%=      5-min Rain = 0
KMD1 271449Z 18008KT 23/17 A2996 RMK A01 T02330173  RH  069%=      5-min Rain = 0
KMD1 271450Z 18008KT 23/17 A2996 RMK A01 T02330173  RH  069%=      5-min Rain = 0
KMD1 271451Z 18010KT 23/17 A2996 RMK A01 T02330174  RH  069%=      5-min Rain = 0
KMD1 271452Z 18011KT 23/17 A2996 RMK A01 T02330171  RH  068%=      5-min Rain = 0
KMD1 271453Z 18009KT 23/17 A2996 RMK A01 T02330171  RH  068%=      5-min Rain = 0
KMD1 271454Z 19010KT 23/17 A2996 RMK A01 T02330172  RH  069%=      5-min Rain = 0
KMD1 271455Z 18010KT 23/17 A2996 RMK A01 T02330170  RH  068%=      5-min Rain = 0
KMD1 271456Z 19010KT 23/17 A2996 RMK A01 T02330170  RH  067%=      5-min Rain = 0
KMD1 271457Z 18013KT 23/17 A2996 RMK A01 T02330169  RH  067%=      5-min Rain = 0
KMD1 271458Z 19011KT 23/17 A2996 RMK A01 T02330169  RH  068%=      5-min Rain = 0
KMD1 271459Z 18008KT 23/17 A2996 RMK A01 T02320169  RH  068%=      5-min Rain = 0
KMD1 271500Z 19008KT 23/17 A2996 RMK A01 T02320171  RH  069%=      5-min Rain = 0
KMD1 271501Z 18015KT 23/17 A2996 RMK A01 T02340168  RH  067%=      5-min Rain = 0
KMD1 271502Z 18012KT 24/17 A2996 RMK A01 T02350168  RH  066%=      5-min Rain = 0
KMD1 271503Z 17012KT 24/17 A2996 RMK A01 T02360169  RH  066%=      5-min Rain = 0
KMD1 271504Z 18014KT 24/17 A2996 RMK A01 T02370170  RH  066%=      5-min Rain = 0
KMD1 271505Z 18013KT 24/17 A2996 RMK A01 T02370168  RH  065%=      5-min Rain = 0
KMD1 271506Z 17011KT 24/17 A2996 RMK A01 T02370171  RH  066%=      5-min Rain = 0
KMD1 271507Z 17013KT 24/17 A2996 RMK A01 T02380169  RH  065%=      5-min Rain = 0
KMD1 271508Z 19010G15KT 24/17 A2995 RMK A01 T02380169  RH  065%=      5-min Rain = 0
KMD1 271509Z 19009KT 24/17 A2995 RMK A01 T02380172  RH  066%=      5-min Rain = 0
KMD1 271510Z 17011KT 24/17 A2995 RMK A01 T02390170  RH  066%=      5-min Rain = 0
KMD1 271511Z 17010KT 24/17 A2995 RMK A01 T02390170  RH  065%=      5-min Rain = 0
KMD1 271512Z 18009KT 24/17 A2995 RMK A01 T02390169  RH  065%=      5-min Rain = 0
KMD1 271513Z 17011KT 24/17 A2995 RMK A01 T02380168  RH  065%=      5-min Rain = 0
KMD1 271514Z 19009KT 24/17 A2995 RMK A01 T02370170  RH  066%=      5-min Rain = 0
KMD1 271515Z 19010KT 24/17 A2995 RMK A01 T02370168  RH  065%=      5-min Rain = 0
KMD1 271516Z 19009KT 24/17 A2995 RMK A01 T02370166  RH  064%=      5-min Rain = 0
KMD1 271517Z 19010KT 24/17 A2995 RMK A01 T02370169  RH  065%=      5-min Rain = 0
KMD1 271518Z 20013KT 24/16 A2995 RMK A01 T02360163  RH  063%=      5-min Rain = 0
KMD1 271519Z 18009KT 24/16 A2995 RMK A01 T02350164  RH  065%=      5-min Rain = 0
KMD1 271520Z 18009KT 24/17 A2995 RMK A01 T02350169  RH  067%=      5-min Rain = 0
KMD1 271521Z 19009KT 24/17 A2995 RMK A01 T02350166  RH  065%=      5-min Rain = 0
KMD1 271522Z 19009KT 24/17 A2995 RMK A01 T02370167  RH  065%=      5-min Rain = 0
KMD1 271523Z 17009KT 24/17 A2995 RMK A01 T02380169  RH  066%=      5-min Rain = 0
KMD1 271524Z 16012KT 24/17 A2995 RMK A01 T02390167  RH  064%=      5-min Rain = 0
KMD1 271525Z 18007KT 24/17 A2995 RMK A01 T02400171  RH  065%=      5-min Rain = 0
KMD1 271531Z 18009KT 24/17 A2995 RMK A01 T02420166  RH  062%=      5-min Rain = 0
KMD1 271532Z 18007KT 24/17 A2995 RMK A01 T02430174  RH  065%=      5-min Rain = 0
KMD1 271533Z 17006KT 25/17 A2995 RMK A01 T02450174  RH  064%=      5-min Rain = 0
KMD1 271534Z 18010KT 25/17 A2995 RMK A01 T02460171  RH  063%=      5-min Rain = 0
KMD1 271535Z 17009KT 25/17 A2995 RMK A01 T02460166  RH  061%=      5-min Rain = 0
KMD1 271536Z 19009KT 25/17 A2995 RMK A01 T02460170  RH  063%=      5-min Rain = 0
KMD1 271537Z 18014KT 25/17 A2995 RMK A01 T02470165  RH  060%=      5-min Rain = 0
KMD1 271538Z 18012KT 25/16 A2995 RMK A01 T02470164  RH  060%=      5-min Rain = 0
KMD1 271539Z 17014KT 25/16 A2995 RMK A01 T02460163  RH  060%=      5-min Rain = 0
KMD1 271540Z 17010KT 25/17 A2995 RMK A01 T02450168  RH  062%=      5-min Rain = 0
KMD1 271541Z 18012KT 25/17 A2995 RMK A01 T02480171  RH  062%=      5-min Rain = 0
KMD1 271542Z 18011KT 25/17 A2995 RMK A01 T02490166  RH  060%=      5-min Rain = 0
KMD1 271543Z 17013KT 25/17 A2995 RMK A01 T02500168  RH  061%=      5-min Rain = 0
KMD1 271544Z 18014KT 25/16 A2995 RMK A01 T02480162  RH  059%=      5-min Rain = 0
KMD1 271545Z 17013KT 25/16 A2995 RMK A01 T02450162  RH  060%=      5-min Rain = 0
KMD1 271546Z 18014KT 24/16 A2995 RMK A01 T02440163  RH  060%=      5-min Rain = 0
KMD1 271547Z 18011KT 25/17 A2995 RMK A01 T02450165  RH  061%=      5-min Rain = 0
KMD1 271548Z 18012KT 25/16 A2995 RMK A01 T02460164  RH  060%=      5-min Rain = 0
KMD1 271549Z 19010KT 25/17 A2995 RMK A01 T02470166  RH  061%=      5-min Rain = 0
KMD1 271550Z 18011KT 25/16 A2995 RMK A01 T02490164  RH  059%=      5-min Rain = 0
KMD1 271551Z 19010KT 25/16 A2995 RMK A01 T02490164  RH  059%=      5-min Rain = 0
KMD1 271552Z 18009KT 25/17 A2995 RMK A01 T02480167  RH  061%=      5-min Rain = 0
KMD1 271553Z 18010KT 25/17 A2995 RMK A01 T02480166  RH  061%=      5-min Rain = 0
KMD1 271554Z 18011KT 25/17 A2995 RMK A01 T02470166  RH  060%=      5-min Rain = 0
KMD1 271555Z 18012KT 25/16 A2995 RMK A01 T02470161  RH  059%=      5-min Rain = 0
KMD1 271556Z 19009KT 25/17 A2995 RMK A01 T02470165  RH  060%=      5-min Rain = 0
KMD1 271557Z 18010KT 25/17 A2995 RMK A01 T02470167  RH  061%=      5-min Rain = 0
KMD1 271558Z 18008KT 25/17 A2995 RMK A01 T02500171  RH  061%=      5-min Rain = 0
KMD1 271559Z 18010KT 25/17 A2995 RMK A01 T02510171  RH  061%=      5-min Rain = 0
KMD1 271600Z 19008KT 25/17 A2995 RMK A01 T02500171  RH  061%=      5-min Rain = 0
KMD1 271601Z 19010KT 25/17 A2995 RMK A01 T02510168  RH  060%=      5-min Rain = 0
KMD1 271602Z 19010KT 25/17 A2995 RMK A01 T02510170  RH  061%=      5-min Rain = 0
KMD1 271603Z 18009KT 25/17 A2995 RMK A01 T02520170  RH  060%=      5-min Rain = 0
KMD1 271604Z 18009KT 25/17 A2995 RMK A01 T02540172  RH  061%=      5-min Rain = 0
KMD1 271605Z 19012KT 26/17 A2995 RMK A01 T02550171  RH  060%=      5-min Rain = 0
KMD1 271606Z 19016KT 26/17 A2994 RMK A01 T02550166  RH  058%=      5-min Rain = 0
KMD1 271607Z 18012G17KT 25/17 A2994 RMK A01 T02540167  RH  058%=      5-min Rain = 0
KMD1 271608Z 19015KT 25/17 A2994 RMK A01 T02530165  RH  058%=      5-min Rain = 0
KMD1 271609Z 19013KT 25/17 A2994 RMK A01 T02540165  RH  058%=      5-min Rain = 0
KMD1 271610Z 19012KT 26/17 A2995 RMK A01 T02550167  RH  058%=      5-min Rain = 0
KMD1 271611Z 19010KT 26/17 A2995 RMK A01 T02560169  RH  058%=      5-min Rain = 0
KMD1 271612Z 20010KT 26/17 A2995 RMK A01 T02570169  RH  058%=      5-min Rain = 0
KMD1 271613Z 19014KT 26/17 A2994 RMK A01 T02570167  RH  057%=      5-min Rain = 0
KMD1 271614Z 19013G18KT 26/17 A2995 RMK A01 T02570169  RH  058%=      5-min Rain = 0
KMD1 271615Z 18014KT 26/17 A2994 RMK A01 T02560165  RH  057%=      5-min Rain = 0
KMD1 271616Z 19012KT 26/17 A2994 RMK A01 T02560165  RH  057%=      5-min Rain = 0
KMD1 271617Z 20010G15KT 26/17 A2994 RMK A01 T02550167  RH  058%=      5-min Rain = 0
KMD1 271618Z 19014KT 26/17 A2994 RMK A01 T02550166  RH  058%=      5-min Rain = 0
KMD1 271619Z 19011G16KT 25/17 A2994 RMK A01 T02540166  RH  058%=      5-min Rain = 0
KMD1 271620Z 19009KT 25/17 A2994 RMK A01 T02540168  RH  059%=      5-min Rain = 0
KMD1 271621Z 19009KT 26/17 A2994 RMK A01 T02560173  RH  060%=      5-min Rain = 0
KMD1 271622Z 19011KT 26/17 A2994 RMK A01 T02580171  RH  059%=      5-min Rain = 0
KMD1 271623Z 19012KT 26/17 A2994 RMK A01 T02590168  RH  057%=      5-min Rain = 0
KMD1 271624Z 19011G16KT 26/17 A2994 RMK A01 T02590172  RH  059%=      5-min Rain = 0
KMD1 271625Z 19013KT 26/17 A2994 RMK A01 T02590170  RH  058%=      5-min Rain = 0
KMD1 271626Z 19012KT 26/17 A2994 RMK A01 T02590168  RH  057%=      5-min Rain = 0
KMD1 271627Z 19012G17KT 26/17 A2994 RMK A01 T02590172  RH  059%=      5-min Rain = 0
KMD1 271628Z 19012G18KT 26/17 A2994 RMK A01 T02580167  RH  057%=      5-min Rain = 0
KMD1 271629Z 18014KT 26/17 A2994 RMK A01 T02590168  RH  057%=      5-min Rain = 0
KMD1 271630Z 20013KT 26/17 A2994 RMK A01 T02590167  RH  057%=      5-min Rain = 0
KMD1 271631Z 19011KT 26/17 A2994 RMK A01 T02580167  RH  057%=      5-min Rain = 0
KMD1 271632Z 19012G17KT 26/17 A2994 RMK A01 T02570168  RH  058%=      5-min Rain = 0
KMD1 271633Z 19011KT 26/17 A2994 RMK A01 T02570167  RH  057%=      5-min Rain = 0
KMD1 271634Z 20008KT 26/17 A2994 RMK A01 T02570171  RH  059%=      5-min Rain = 0
KMD1 271635Z 20011KT 26/17 A2994 RMK A01 T02580169  RH  058%=      5-min Rain = 0
KMD1 271636Z 19009KT 26/17 A2994 RMK A01 T02590168  RH  057%=      5-min Rain = 0
KMD1 271637Z 17009KT 26/18 A2994 RMK A01 T02600176  RH  060%=      5-min Rain = 0
KMD1 271638Z 18011KT 26/17 A2994 RMK A01 T02620172  RH  058%=      5-min Rain = 0
KMD1 271639Z 17010KT 26/17 A2994 RMK A01 T02630173  RH  058%=      5-min Rain = 0
KMD1 271640Z 17008KT 26/17 A2994 RMK A01 T02630171  RH  057%=      5-min Rain = 0
KMD1 271641Z 16010KT 26/17 A2994 RMK A01 T02640173  RH  057%=      5-min Rain = 0
KMD1 271642Z 17011KT 26/17 A2994 RMK A01 T02630170  RH  057%=      5-min Rain = 0
KMD1 271643Z 16013KT 26/17 A2994 RMK A01 T02630172  RH  058%=      5-min Rain = 0
KMD1 271644Z 18010KT 26/17 A2994 RMK A01 T02640171  RH  057%=      5-min Rain = 0
KMD1 271645Z 18011KT 26/18 A2994 RMK A01 T02640177  RH  059%=      5-min Rain = 0
KMD1 271646Z 17011KT 26/17 A2994 RMK A01 T02640170  RH  056%=      5-min Rain = 0
KMD1 271647Z 18009KT 27/18 A2994 RMK A01 T02650175  RH  058%=      5-min Rain = 0
KMD1 271648Z 17010KT 27/18 A2994 RMK A01 T02660175  RH  058%=      5-min Rain = 0
KMD1 271649Z 16014KT 27/17 A2993 RMK A01 T02670173  RH  056%=      5-min Rain = 0
KMD1 271650Z 17014KT 27/17 A2994 RMK A01 T02680173  RH  056%=      5-min Rain = 0
KMD1 271651Z 17013KT 27/17 A2993 RMK A01 T02670170  RH  055%=      5-min Rain = 0
KMD1 271652Z 16012KT 27/17 A2993 RMK A01 T02660169  RH  055%=      5-min Rain = 0
KMD1 271653Z 17012KT 27/17 A2993 RMK A01 T02660174  RH  057%=      5-min Rain = 0
KMD1 271654Z 18011KT 27/17 A2993 RMK A01 T02670172  RH  056%=      5-min Rain = 0
KMD1 271655Z 18011KT 27/17 A2993 RMK A01 T02670173  RH  057%=      5-min Rain = 0
KMD1 271656Z 19011KT 27/18 A2993 RMK A01 T02670176  RH  057%=      5-min Rain = 0
KMD1 271657Z 18013KT 27/18 A2993 RMK A01 T02690178  RH  057%=      5-min Rain = 0
KMD1 271658Z 18012KT 27/18 A2993 RMK A01 T02700178  RH  057%=      5-min Rain = 0
KMD1 271659Z 19010KT 27/18 A2993 RMK A01 T02700177  RH  057%=      5-min Rain = 0
KMD1 271700Z 18013KT 27/18 A2993 RMK A01 T02700176  RH  056%=      5-min Rain = 0
KMD1 271701Z 19012G17KT 27/18 A2993 RMK A01 T02700177  RH  057%=      5-min Rain = 0
KMD1 271702Z 19015KT 27/17 A2993 RMK A01 T02690172  RH  055%=      5-min Rain = 0
KMD1 271703Z 18012KT 27/17 A2993 RMK A01 T02670171  RH  056%=      5-min Rain = 0
KMD1 271704Z 19013KT 27/17 A2993 RMK A01 T02670172  RH  056%=      5-min Rain = 0
KMD1 271705Z 19013KT 27/17 A2993 RMK A01 T02670171  RH  056%=      5-min Rain = 0
KMD1 271706Z 19013KT 27/17 A2993 RMK A01 T02680172  RH  056%=      5-min Rain = 0
KMD1 271707Z 19011KT 27/17 A2993 RMK A01 T02680173  RH  056%=      5-min Rain = 0
KMD1 271708Z 18014KT 27/17 A2993 RMK A01 T02680170  RH  055%=      5-min Rain = 0
KMD1 271709Z 18011KT 27/17 A2993 RMK A01 T02680172  RH  056%=      5-min Rain = 0
KMD1 271710Z 17011KT 27/18 A2993 RMK A01 T02680177  RH  057%=      5-min Rain = 0
KMD1 271711Z 17010KT 27/18 A2993 RMK A01 T02720180  RH  057%=      5-min Rain = 0
KMD1 271712Z 15012KT 27/17 A2993 RMK A01 T02730173  RH  054%=      5-min Rain = 0
KMD1 271713Z 15013KT 27/17 A2993 RMK A01 T02700170  RH  054%=      5-min Rain = 0
KMD1 271714Z 14012KT 27/18 A2993 RMK A01 T02690175  RH  056%=      5-min Rain = 0
KMD1 271715Z 15011KT 27/17 A2993 RMK A01 T02680173  RH  056%=      5-min Rain = 0
KMD1 271716Z 16009KT 27/18 A2993 RMK A01 T02700176  RH  056%=      5-min Rain = 0
KMD1 271717Z 15012KT 27/17 A2993 RMK A01 T02730174  RH  055%=      5-min Rain = 0
KMD1 271718Z 17011KT 27/17 A2993 RMK A01 T02730173  RH  054%=      5-min Rain = 0
KMD1 271719Z 18014KT 27/18 A2993 RMK A01 T02740176  RH  055%=      5-min Rain = 0
KMD1 271720Z 17013KT 27/17 A2993 RMK A01 T02730173  RH  054%=      5-min Rain = 0
KMD1 271721Z 17010G15KT 27/18 A2993 RMK A01 T02730175  RH  055%=      5-min Rain = 0
KMD1 271722Z 17011KT 27/17 A2993 RMK A01 T02740174  RH  054%=      5-min Rain = 0
KMD1 271723Z 16010KT 27/17 A2993 RMK A01 T02740174  RH  054%=      5-min Rain = 0
KMD1 271724Z 18011KT 27/18 A2993 RMK A01 T02740176  RH  055%=      5-min Rain = 0
KMD1 271725Z 18011G16KT 28/18 A2992 RMK A01 T02750175  RH  054%=      5-min Rain = 0
KMD1 271726Z 17013KT 28/18 A2992 RMK A01 T02750175  RH  054%=      5-min Rain = 0
KMD1 271727Z 17012KT 28/17 A2992 RMK A01 T02760172  RH  053%=      5-min Rain = 0
KMD1 271728Z 16010KT 28/18 A2992 RMK A01 T02760175  RH  054%=      5-min Rain = 0
KMD1 271729Z 17008KT 28/18 A2992 RMK A01 T02760178  RH  055%=      5-min Rain = 0
KMD1 271730Z 16009KT 28/19 A2992 RMK A01 T02780185  RH  057%=      5-min Rain = 0
KMD1 271731Z 16012KT 28/18 A2992 RMK A01 T02800177  RH  053%=      5-min Rain = 0
KMD1 271732Z 16012KT 28/17 A2992 RMK A01 T02790174  RH  053%=      5-min Rain = 0
KMD1 271733Z 16012KT 28/17 A2992 RMK A01 T02770170  RH  052%=      5-min Rain = 0
KMD1 271734Z 14014KT 28/17 A2992 RMK A01 T02750174  RH  054%=      5-min Rain = 0
KMD1 271735Z 14013KT 27/18 A2992 RMK A01 T02720175  RH  055%=      5-min Rain = 0
KMD1 271736Z 14011KT 27/17 A2992 RMK A01 T02710174  RH  055%=      5-min Rain = 0
KMD1 271737Z 16008KT 27/18 A2992 RMK A01 T02720180  RH  057%=      5-min Rain = 0
KMD1 271738Z 17007KT 27/18 A2992 RMK A01 T02740175  RH  055%=      5-min Rain = 0
KMD1 271739Z 17011KT 28/18 A2992 RMK A01 T02770177  RH  055%=      5-min Rain = 0
KMD1 271740Z 17012KT 28/17 A2992 RMK A01 T02770174  RH  053%=      5-min Rain = 0
KMD1 271741Z 16011KT 28/17 A2992 RMK A01 T02760172  RH  053%=      5-min Rain = 0
KMD1 271742Z 17011KT 28/17 A2992 RMK A01 T02750174  RH  054%=      5-min Rain = 0
KMD1 271743Z 16013KT 28/17 A2992 RMK A01 T02770174  RH  053%=      5-min Rain = 0
KMD1 271744Z 16014KT 28/17 A2992 RMK A01 T02770173  RH  053%=      5-min Rain = 0
KMD1 271745Z 16011KT 28/18 A2992 RMK A01 T02780179  RH  055%=      5-min Rain = 0
KMD1 271746Z 16012KT 28/17 A2992 RMK A01 T02790174  RH  053%=      5-min Rain = 0
KMD1 271747Z 18011G17KT 28/18 A2992 RMK A01 T02790181  RH  055%=      5-min Rain = 0
KMD1 271748Z 18012KT 28/18 A2992 RMK A01 T02790176  RH  054%=      5-min Rain = 0
KMD1 271749Z 18011G17KT 28/18 A2992 RMK A01 T02790179  RH  055%=      5-min Rain = 0
KMD1 271750Z 17015KT 28/18 A2991 RMK A01 T02790175  RH  053%=      5-min Rain = 0
KMD1 271751Z 16013KT 28/18 A2991 RMK A01 T02790176  RH  054%=      5-min Rain = 0
KMD1 271752Z 16014KT 28/18 A2991 RMK A01 T02800178  RH  054%=      5-min Rain = 0
KMD1 271753Z 18013KT 28/18 A2991 RMK A01 T02810178  RH  054%=      5-min Rain = 0
KMD1 271754Z 18014KT 28/18 A2991 RMK A01 T02810177  RH  053%=      5-min Rain = 0
KMD1 271755Z 18013KT 28/18 A2991 RMK A01 T02800176  RH  053%=      5-min Rain = 0
KMD1 271756Z 17015G21KT 28/18 A2991 RMK A01 T02810179  RH  054%=      5-min Rain = 0
KMD1 271757Z 17014KT 28/18 A2991 RMK A01 T02810178  RH  054%=      5-min Rain = 0
KMD1 271758Z 18011KT 28/18 A2991 RMK A01 T02810180  RH  054%=      5-min Rain = 0
KMD1 271759Z 20013KT 28/18 A2991 RMK A01 T02810176  RH  053%=      5-min Rain = 0
KMD1 271800Z 18012KT 28/18 A2991 RMK A01 T02800175  RH  053%=      5-min Rain = 0
KMD1 271801Z 17008KT 28/18 A2991 RMK A01 T02790178  RH  054%=      5-min Rain = 0
KMD1 271802Z 17011KT 28/18 A2991 RMK A01 T02800182  RH  055%=      5-min Rain = 0
KMD1 271803Z 15012KT 28/17 A2991 RMK A01 T02810173  RH  052%=      5-min Rain = 0
KMD1 271804Z 16011KT 28/18 A2991 RMK A01 T02790178  RH  054%=      5-min Rain = 0
KMD1 271805Z 18013KT 28/18 A2991 RMK A01 T02790176  RH  053%=      5-min Rain = 0
KMD1 271806Z 18011KT 28/18 A2991 RMK A01 T02790177  RH  054%=      5-min Rain = 0
KMD1 271807Z 18010KT 28/18 A2991 RMK A01 T02790178  RH  054%=      5-min Rain = 0
KMD1 271808Z 19009KT 28/18 A2991 RMK A01 T02790180  RH  055%=      5-min Rain = 0
KMD1 271809Z 18009KT 28/18 A2991 RMK A01 T02800181  RH  055%=      5-min Rain = 0
KMD1 271810Z 18012KT 28/18 A2991 RMK A01 T02820179  RH  054%=      5-min Rain = 0
KMD1 271811Z 17011KT 28/18 A2991 RMK A01 T02820182  RH  055%=      5-min Rain = 0
KMD1 271812Z 17011KT 28/18 A2991 RMK A01 T02840180  RH  053%=      5-min Rain = 0
KMD1 271813Z 18010KT 28/18 A2991 RMK A01 T02840184  RH  055%=      5-min Rain = 0
KMD1 271814Z 19008KT 29/18 A2991 RMK A01 T02850181  RH  053%=      5-min Rain = 0
KMD1 271815Z 18012KT 29/19 A2991 RMK A01 T02850186  RH  055%=      5-min Rain = 0
KMD1 271816Z 18012KT 29/18 A2991 RMK A01 T02850182  RH  054%=      5-min Rain = 0
KMD1 271817Z 19012KT 29/18 A2991 RMK A01 T02850182  RH  054%=      5-min Rain = 0
KMD1 271818Z 19010KT 28/18 A2991 RMK A01 T02840183  RH  054%=      5-min Rain = 0
KMD1 271819Z 19011KT 28/18 A2991 RMK A01 T02840180  RH  053%=      5-min Rain = 0
KMD1 271820Z 19008KT 28/18 A2991 RMK A01 T02830180  RH  053%=      5-min Rain = 0
KMD1 271821Z 18011G17KT 28/18 A2991 RMK A01 T02830182  RH  054%=      5-min Rain = 0
KMD1 271822Z 18014KT 28/18 A2991 RMK A01 T02840181  RH  054%=      5-min Rain = 0
KMD1 271823Z 18009KT 28/18 A2991 RMK A01 T02840182  RH  054%=      5-min Rain = 0
KMD1 271824Z 18014KT 29/18 A2991 RMK A01 T02850183  RH  054%=      5-min Rain = 0
KMD1 271825Z 17013KT 29/18 A2991 RMK A01 T02860182  RH  054%=      5-min Rain = 0
KMD1 271826Z 18013KT 29/19 A2991 RMK A01 T02860185  RH  054%=      5-min Rain = 0
KMD1 271827Z 17015KT 29/18 A2991 RMK A01 T02870182  RH  053%=      5-min Rain = 0
KMD1 271828Z 18011KT 29/18 A2991 RMK A01 T02870178  RH  052%=      5-min Rain = 0
KMD1 271829Z 20011KT 29/18 A2991 RMK A01 T02850181  RH  053%=      5-min Rain = 0
KMD1 271830Z 19012G18KT 28/18 A299 RMK A01 T02840183  RH  054%=      5-min Rain = 0
KMD1 271831Z 18014KT 29/18 A299 RMK A01 T02850183  RH  054%=      5-min Rain = 0
KMD1 271832Z 18013KT 29/18 A299 RMK A01 T02850182  RH  053%=      5-min Rain = 0
KMD1 271833Z 19011KT 28/18 A299 RMK A01 T02840180  RH  053%=      5-min Rain = 0
KMD1 271834Z 19010KT 28/19 A299 RMK A01 T02830185  RH  055%=      5-min Rain = 0
KMD1 271835Z 18009KT 29/19 A299 RMK A01 T02850186  RH  055%=      5-min Rain = 0
KMD1 271836Z 16007KT 29/19 A299 RMK A01 T02870188  RH  055%=      5-min Rain = 0
KMD1 271837Z 15010KT 29/19 A299 RMK A01 T02880191  RH  056%=      5-min Rain = 0
KMD1 271838Z 18010KT 29/19 A299 RMK A01 T02890190  RH  055%=      5-min Rain = 0
KMD1 271839Z 16011KT 29/19 A299 RMK A01 T02900189  RH  054%=      5-min Rain = 0
KMD1 271840Z 16009KT 29/19 A299 RMK A01 T02900185  RH  053%=      5-min Rain = 0
KMD1 271841Z 17010KT 29/19 A299 RMK A01 T02900189  RH  055%=      5-min Rain = 0
KMD1 271842Z 16012KT 29/19 A2989 RMK A01 T02910185  RH  053%=      5-min Rain = 0
KMD1 271843Z 15011KT 29/19 A299 RMK A01 T02910188  RH  054%=      5-min Rain = 0
KMD1 271844Z 16009KT 29/19 A299 RMK A01 T02890185  RH  053%=      5-min Rain = 0
KMD1 271845Z 15012KT 29/19 A2989 RMK A01 T02890186  RH  054%=      5-min Rain = 0
KMD1 271846Z 17012KT 29/19 A2989 RMK A01 T02890192  RH  056%=      5-min Rain = 0
KMD1 271847Z 18010G15KT 29/19 A2989 RMK A01 T02910188  RH  054%=      5-min Rain = 0
KMD1 271848Z 16013KT 29/19 A2989 RMK A01 T02920192  RH  055%=      5-min Rain = 0
KMD1 271849Z 16014KT 29/19 A2989 RMK A01 T02920189  RH  054%=      5-min Rain = 0
KMD1 271850Z 16013KT 29/19 A2989 RMK A01 T02920186  RH  053%=      5-min Rain = 0
KMD1 271851Z 16010KT 29/19 A2989 RMK A01 T02920190  RH  054%=      5-min Rain = 0
KMD1 271852Z 18009KT 29/19 A2989 RMK A01 T02920190  RH  054%=      5-min Rain = 0
KMD1 271853Z 19011KT 29/19 A2989 RMK A01 T02920189  RH  054%=      5-min Rain = 0
KMD1 271854Z 18010KT 29/19 A2989 RMK A01 T02910189  RH  054%=      5-min Rain = 0
KMD1 271855Z 17013KT 29/19 A2989 RMK A01 T02910190  RH  054%=      5-min Rain = 0
KMD1 271856Z 16011KT 29/19 A2989 RMK A01 T02910189  RH  054%=      5-min Rain = 0
KMD1 271857Z 17010KT 29/19 A2989 RMK A01 T02910191  RH  055%=      5-min Rain = 0
KMD1 271858Z 16009KT 29/20 A2989 RMK A01 T02940197  RH  056%=      5-min Rain = 0
KMD1 271859Z 17010KT 30/19 A2989 RMK A01 T02950192  RH  054%=      5-min Rain = 0
KMD1 271900Z 16014KT 30/19 A2989 RMK A01 T02950191  RH  054%=      5-min Rain = 0
KMD1 271901Z 17015KT 29/19 A2989 RMK A01 T02940191  RH  054%=      5-min Rain = 0
KMD1 271902Z 18011KT 29/19 A2989 RMK A01 T02940192  RH  054%=      5-min Rain = 0
KMD1 271903Z 17012KT 29/19 A2989 RMK A01 T02940191  RH  054%=      5-min Rain = 0
KMD1 271904Z 17015KT 29/19 A2989 RMK A01 T02940190  RH  054%=      5-min Rain = 0
KMD1 271905Z 17013KT 29/19 A2989 RMK A01 T02930190  RH  054%=      5-min Rain = 0
KMD1 271906Z 16012KT 29/19 A2989 RMK A01 T02930192  RH  055%=      5-min Rain = 0
KMD1 271907Z 18009KT 29/19 A2989 RMK A01 T02930192  RH  055%=      5-min Rain = 0
KMD1 271908Z 18008KT 29/19 A2988 RMK A01 T02930192  RH  055%=      5-min Rain = 0
KMD1 271909Z 18007KT 29/20 A2988 RMK A01 T02930195  RH  056%=      5-min Rain = 0
KMD1 271910Z 19011G16KT 30/20 A2988 RMK A01 T02950198  RH  056%=      5-min Rain = 0
KMD1 271911Z 18008KT 30/20 A2988 RMK A01 T02960199  RH  056%=      5-min Rain = 0
KMD1 271912Z 18008KT 30/19 A2988 RMK A01 T02970193  RH  054%=      5-min Rain = 0
KMD1 271913Z 16008KT 30/20 A2988 RMK A01 T02970198  RH  056%=      5-min Rain = 0
KMD1 271914Z 17011KT 30/20 A2988 RMK A01 T02980201  RH  056%=      5-min Rain = 0
KMD1 271915Z 17010KT 30/20 A2988 RMK A01 T02990195  RH  054%=      5-min Rain = 0
KMD1 271916Z 17013KT 30/20 A2988 RMK A01 T02990195  RH  054%=      5-min Rain = 0
KMD1 271917Z 17010KT 30/19 A2988 RMK A01 T02970194  RH  054%=      5-min Rain = 0
KMD1 271918Z 18012KT 30/20 A2988 RMK A01 T02960198  RH  056%=      5-min Rain = 0
KMD1 271919Z 17016KT 30/20 A2988 RMK A01 T02960195  RH  055%=      5-min Rain = 0
KMD1 271920Z 18012KT 30/20 A2988 RMK A01 T02960195  RH  055%=      5-min Rain = 0
KMD1 271921Z 19012KT 30/20 A2988 RMK A01 T02950198  RH  056%=      5-min Rain = 0
KMD1 271922Z 19010KT 30/20 A2988 RMK A01 T02950196  RH  055%=      5-min Rain = 0
KMD1 271923Z 18009KT 30/20 A2988 RMK A01 T02960201  RH  057%=      5-min Rain = 0
KMD1 271924Z 17009KT 30/20 A2987 RMK A01 T02980198  RH  055%=      5-min Rain = 0
KMD1 271925Z 15010KT 30/20 A2987 RMK A01 T02980200  RH  056%=      5-min Rain = 0
KMD1 271926Z 17010G15KT 30/21 A2987 RMK A01 T03000207  RH  057%=      5-min Rain = 0
KMD1 271927Z 17015KT 30/20 A2987 RMK A01 T03030201  RH  055%=      5-min Rain = 0
KMD1 271928Z 18014KT 30/20 A2987 RMK A01 T03030200  RH  054%=      5-min Rain = 0
KMD1 271929Z 18010KT 30/20 A2987 RMK A01 T03010202  RH  055%=      5-min Rain = 0
KMD1 271930Z 18008KT 30/20 A2987 RMK A01 T03000202  RH  056%=      5-min Rain = 0
KMD1 271931Z 20009G17KT 30/21 A2987 RMK A01 T03000210  RH  058%=      5-min Rain = 0
KMD1 271932Z 20011KT 30/20 A2987 RMK A01 T03020204  RH  055%=      5-min Rain = 0
KMD1 271933Z 18012KT 30/20 A2987 RMK A01 T03030204  RH  056%=      5-min Rain = 0
KMD1 271934Z 17012KT 30/20 A2987 RMK A01 T03010201  RH  055%=      5-min Rain = 0
KMD1 271935Z 16015KT 30/20 A2987 RMK A01 T03000201  RH  055%=      5-min Rain = 0
KMD1 271936Z 16012KT 30/20 A2987 RMK A01 T02990199  RH  055%=      5-min Rain = 0
KMD1 271937Z 18010KT 30/21 A2987 RMK A01 T02980206  RH  058%=      5-min Rain = 0
KMD1 271938Z 17012KT 30/20 A2987 RMK A01 T03000202  RH  056%=      5-min Rain = 0
KMD1 271939Z 16012KT 30/20 A2987 RMK A01 T03000201  RH  055%=      5-min Rain = 0
KMD1 271940Z 16011KT 30/21 A2987 RMK A01 T03000206  RH  057%=      5-min Rain = 0
KMD1 271941Z 17014KT 30/21 A2987 RMK A01 T03030208  RH  057%=      5-min Rain = 0
KMD1 271942Z 19012G18KT 30/20 A2987 RMK A01 T03030203  RH  055%=      5-min Rain = 0
KMD1 271943Z 20011KT 30/21 A2987 RMK A01 T03020208  RH  057%=      5-min Rain = 0
KMD1 271944Z 19013KT 30/21 A2986 RMK A01 T03020205  RH  056%=      5-min Rain = 0
KMD1 271945Z 20012KT 30/21 A2986 RMK A01 T03010206  RH  057%=      5-min Rain = 0
KMD1 271946Z 18011KT 30/21 A2986 RMK A01 T03000210  RH  058%=      5-min Rain = 0
KMD1 271947Z 18011KT 30/21 A2986 RMK A01 T03010208  RH  057%=      5-min Rain = 0
KMD1 271948Z 17008KT 30/21 A2986 RMK A01 T03030214  RH  059%=      5-min Rain = 0
KMD1 271949Z 17012KT 31/21 A2986 RMK A01 T03050209  RH  056%=      5-min Rain = 0
KMD1 271950Z 17010KT 30/21 A2986 RMK A01 T03040208  RH  056%=      5-min Rain = 0
KMD1 271951Z 16013KT 30/21 A2986 RMK A01 T03020208  RH  057%=      5-min Rain = 0
KMD1 271952Z 16009KT 30/20 A2986 RMK A01 T03020204  RH  056%=      5-min Rain = 0
KMD1 271953Z 16011KT 30/21 A2986 RMK A01 T03020214  RH  059%=      5-min Rain = 0
KMD1 271954Z 17013G18KT 31/21 A2986 RMK A01 T03060211  RH  057%=      5-min Rain = 0
KMD1 271955Z 17011KT 31/21 A2986 RMK A01 T03070212  RH  057%=      5-min Rain = 0
KMD1 271956Z 18012KT 31/21 A2986 RMK A01 T03060208  RH  056%=      5-min Rain = 0
KMD1 271957Z 17011KT 30/21 A2986 RMK A01 T03040208  RH  057%=      5-min Rain = 0
KMD1 271958Z 17010KT 30/21 A2986 RMK A01 T03030206  RH  056%=      5-min Rain = 0
KMD1 271959Z 16008KT 30/21 A2985 RMK A01 T03030211  RH  058%=      5-min Rain = 0
KMD1 272000Z 15011G16KT 30/21 A2985 RMK A01 T03040210  RH  057%=      5-min Rain = 0
KMD1 272001Z 17012KT 30/21 A2985 RMK A01 T03040210  RH  057%=      5-min Rain = 0
KMD1 272002Z 17011KT 30/21 A2985 RMK A01 T03030206  RH  056%=      5-min Rain = 0
KMD1 272003Z 15009KT 30/21 A2985 RMK A01 T03030208  RH  057%=      5-min Rain = 0
KMD1 272004Z 18008KT 30/21 A2985 RMK A01 T03030212  RH  058%=      5-min Rain = 0
KMD1 272005Z 18010KT 30/21 A2985 RMK A01 T03020208  RH  057%=      5-min Rain = 0
KMD1 272006Z 18013KT 30/21 A2985 RMK A01 T03020211  RH  058%=      5-min Rain = 0
KMD1 272007Z 17010KT 30/21 A2985 RMK A01 T03030209  RH  057%=      5-min Rain = 0
KMD1 272008Z 18013KT 30/21 A2985 RMK A01 T03030209  RH  057%=      5-min Rain = 0
KMD1 272009Z 18014KT 30/21 A2985 RMK A01 T03030209  RH  057%=      5-min Rain = 0
KMD1 272010Z 18013KT 30/21 A2985 RMK A01 T03020208  RH  057%=      5-min Rain = 0
KMD1 272011Z 16010KT 30/21 A2985 RMK A01 T03020214  RH  059%=      5-min Rain = 0
KMD1 272012Z 17012G17KT 31/21 A2985 RMK A01 T03050214  RH  058%=      5-min Rain = 0
KMD1 272013Z 17013KT 31/21 A2985 RMK A01 T03070209  RH  056%=      5-min Rain = 0
KMD1 272014Z 18009G15KT 31/21 A2985 RMK A01 T03060212  RH  057%=      5-min Rain = 0
KMD1 272015Z 18015KT 31/21 A2985 RMK A01 T03050210  RH  057%=      5-min Rain = 0
KMD1 272016Z 17012KT 30/21 A2985 RMK A01 T03030206  RH  056%=      5-min Rain = 0
KMD1 272017Z 19012KT 30/21 A2985 RMK A01 T03010207  RH  057%=      5-min Rain = 0
KMD1 272018Z 18013KT 30/21 A2985 RMK A01 T02990206  RH  057%=      5-min Rain = 0
KMD1 272019Z 17013KT 30/21 A2985 RMK A01 T02990207  RH  058%=      5-min Rain = 0
KMD1 272020Z 18011KT 30/21 A2985 RMK A01 T03020209  RH  057%=      5-min Rain = 0
KMD1 272021Z 18013KT 31/21 A2985 RMK A01 T03050211  RH  057%=      5-min Rain = 0
KMD1 272022Z 19014G19KT 31/21 A2985 RMK A01 T03060206  RH  055%=      5-min Rain = 0
KMD1 272023Z 17013KT 30/21 A2985 RMK A01 T03040205  RH  056%=      5-min Rain = 0
KMD1 272024Z 17013KT 30/21 A2985 RMK A01 T03030209  RH  057%=      5-min Rain = 0
KMD1 272025Z 19013KT 30/21 A2985 RMK A01 T03040205  RH  055%=      5-min Rain = 0
KMD1 272026Z 19010KT 30/21 A2985 RMK A01 T03040207  RH  056%=      5-min Rain = 0
KMD1 272027Z 18011G18KT 30/21 A2985 RMK A01 T03030211  RH  058%=      5-min Rain = 0
KMD1 272028Z 18014G21KT 30/21 A2985 RMK A01 T03030208  RH  057%=      5-min Rain = 0
KMD1 272029Z 19012KT 30/21 A2985 RMK A01 T03040211  RH  058%=      5-min Rain = 0
KMD1 272030Z 19015KT 31/21 A2985 RMK A01 T03050205  RH  055%=      5-min Rain = 0
KMD1 272031Z 19012KT 30/20 A2985 RMK A01 T03040203  RH  055%=      5-min Rain = 0
KMD1 272032Z 18011KT 30/21 A2985 RMK A01 T03020205  RH  056%=      5-min Rain = 0
KMD1 272033Z 19009KT 30/21 A2985 RMK A01 T03020206  RH  057%=      5-min Rain = 0
KMD1 272034Z 18008G13KT 30/21 A2985 RMK A01 T03020208  RH  057%=      5-min Rain = 0
KMD1 272035Z 18011KT 30/21 A2985 RMK A01 T03030209  RH  057%=      5-min Rain = 0
KMD1 272036Z 17015KT 31/21 A2985 RMK A01 T03050210  RH  057%=      5-min Rain = 0
KMD1 272037Z 17015KT 31/20 A2985 RMK A01 T03050204  RH  055%=      5-min Rain = 0
KMD1 272038Z 18015KT 30/21 A2985 RMK A01 T03030206  RH  056%=      5-min Rain = 0
KMD1 272039Z 18013KT 30/21 A2985 RMK A01 T03000206  RH  057%=      5-min Rain = 0
KMD1 272040Z 17012KT 30/21 A2985 RMK A01 T02990208  RH  058%=      5-min Rain = 0
KMD1 272041Z 18011KT 30/21 A2985 RMK A01 T03010209  RH  058%=      5-min Rain = 0
KMD1 272042Z 19007KT 30/21 A2985 RMK A01 T03020212  RH  058%=      5-min Rain = 0
KMD1 272043Z 19011KT 30/21 A2985 RMK A01 T03040212  RH  058%=      5-min Rain = 0
KMD1 272044Z 18013KT 30/21 A2985 RMK A01 T03040207  RH  056%=      5-min Rain = 0
KMD1 272045Z 19012KT 30/21 A2984 RMK A01 T03040209  RH  057%=      5-min Rain = 0
KMD1 272046Z 19010KT 30/21 A2984 RMK A01 T03030208  RH  057%=      5-min Rain = 0
KMD1 272047Z 20013KT 30/21 A2984 RMK A01 T03020207  RH  057%=      5-min Rain = 0
KMD1 272048Z 19012KT 30/21 A2984 RMK A01 T03030209  RH  057%=      5-min Rain = 0
KMD1 272049Z 18013KT 30/21 A2984 RMK A01 T03040207  RH  056%=      5-min Rain = 0
KMD1 272050Z 18013G18KT 30/21 A2984 RMK A01 T03040212  RH  058%=      5-min Rain = 0
KMD1 272051Z 18014KT 31/21 A2984 RMK A01 T03050209  RH  056%=      5-min Rain = 0
KMD1 272052Z 18013KT 31/21 A2984 RMK A01 T03050211  RH  057%=      5-min Rain = 0
KMD1 272053Z 17012KT 31/21 A2984 RMK A01 T03060209  RH  056%=      5-min Rain = 0
KMD1 272054Z 18010G15KT 31/21 A2984 RMK A01 T03060213  RH  058%=      5-min Rain = 0
KMD1 272055Z 19010KT 31/21 A2984 RMK A01 T03070209  RH  056%=      5-min Rain = 0
KMD1 272056Z 19009KT 31/21 A2984 RMK A01 T03070208  RH  056%=      5-min Rain = 0
KMD1 272057Z 18010KT 31/21 A2984 RMK A01 T03060207  RH  056%=      5-min Rain = 0
KMD1 272058Z 17010KT 31/21 A2984 RMK A01 T03050210  RH  057%=      5-min Rain = 0
KMD1 272059Z 16013KT 31/21 A2984 RMK A01 T03050211  RH  057%=      5-min Rain = 0
KMD1 272100Z 16011KT 31/21 A2984 RMK A01 T03060209  RH  056%=      5-min Rain = 0
KMD1 272101Z 16013KT 31/21 A2984 RMK A01 T03060210  RH  056%=      5-min Rain = 0
KMD1 272102Z 18011KT 31/21 A2984 RMK A01 T03070212  RH  057%=      5-min Rain = 0
KMD1 272103Z 17012KT 31/21 A2984 RMK A01 T03060212  RH  057%=      5-min Rain = 0
KMD1 272104Z 18011KT 31/21 A2984 RMK A01 T03060208  RH  056%=      5-min Rain = 0
KMD1 272105Z 18010KT 31/21 A2984 RMK A01 T03050212  RH  057%=      5-min Rain = 0
KMD1 272106Z 17010KT 31/21 A2984 RMK A01 T03060209  RH  056%=      5-min Rain = 0
KMD1 272107Z 18009KT 30/21 A2984 RMK A01 T03040212  RH  058%=      5-min Rain = 0
KMD1 272108Z 18012KT 30/21 A2984 RMK A01 T03040214  RH  058%=      5-min Rain = 0
KMD1 272109Z 17015KT 30/21 A2983 RMK A01 T03040207  RH  056%=      5-min Rain = 0
KMD1 272110Z 18012G17KT 30/21 A2984 RMK A01 T03030208  RH  057%=      5-min Rain = 0
KMD1 272111Z 18015KT 30/21 A2983 RMK A01 T03020206  RH  057%=      5-min Rain = 0
KMD1 272112Z 18014KT 30/20 A2983 RMK A01 T03010204  RH  056%=      5-min Rain = 0
KMD1 272113Z 18013KT 30/21 A2983 RMK A01 T03000206  RH  057%=      5-min Rain = 0
KMD1 272114Z 17011KT 30/21 A2983 RMK A01 T03000205  RH  057%=      5-min Rain = 0
KMD1 272115Z 17014G20KT 30/21 A2983 RMK A01 T03010209  RH  058%=      5-min Rain = 0
KMD1 272116Z 18014KT 30/21 A2983 RMK A01 T03020205  RH  056%=      5-min Rain = 0
KMD1 272117Z 18013KT 30/21 A2983 RMK A01 T03010207  RH  057%=      5-min Rain = 0
KMD1 272118Z 18012KT 30/21 A2983 RMK A01 T03020209  RH  057%=      5-min Rain = 0
KMD1 272119Z 18011KT 30/21 A2983 RMK A01 T03030207  RH  057%=      5-min Rain = 0
KMD1 272120Z 19010G15KT 30/21 A2983 RMK A01 T03040206  RH  056%=      5-min Rain = 0
KMD1 272121Z 18009KT 31/21 A2983 RMK A01 T03050206  RH  056%=      5-min Rain = 0
KMD1 272122Z 19009KT 31/21 A2983 RMK A01 T03050209  RH  057%=      5-min Rain = 0
KMD1 272123Z 17013G20KT 31/21 A2983 RMK A01 T03050211  RH  057%=      5-min Rain = 0
KMD1 272124Z 18015G20KT 31/21 A2983 RMK A01 T03050208  RH  056%=      5-min Rain = 0
KMD1 272125Z 18013KT 30/21 A2983 RMK A01 T03030207  RH  057%=      5-min Rain = 0
KMD1 272126Z 18010KT 30/21 A2983 RMK A01 T03010206  RH  057%=      5-min Rain = 0
KMD1 272127Z 18012KT 30/21 A2983 RMK A01 T03000206  RH  057%=      5-min Rain = 0
KMD1 272128Z 17014KT 30/21 A2983 RMK A01 T03010207  RH  057%=      5-min Rain = 0
KMD1 272129Z 17012KT 30/21 A2983 RMK A01 T03000208  RH  058%=      5-min Rain = 0
KMD1 272130Z 17011KT 30/21 A2982 RMK A01 T02980207  RH  058%=      5-min Rain = 0
KMD1 272131Z 17010KT 30/21 A2982 RMK A01 T02990209  RH  059%=      5-min Rain = 0
KMD1 272132Z 18013KT 30/21 A2982 RMK A01 T03010206  RH  057%=      5-min Rain = 0
KMD1 272133Z 18012KT 30/21 A2982 RMK A01 T03010206  RH  057%=      5-min Rain = 0
KMD1 272134Z 17011KT 30/21 A2982 RMK A01 T02990209  RH  058%=      5-min Rain = 0
KMD1 272135Z 18013KT 30/21 A2982 RMK A01 T03000209  RH  058%=      5-min Rain = 0
KMD1 272136Z 18012KT 30/21 A2982 RMK A01 T03010207  RH  057%=      5-min Rain = 0
KMD1 272137Z 19013G18KT 30/21 A2982 RMK A01 T03000207  RH  058%=      5-min Rain = 0
KMD1 272138Z 18017KT 30/21 A2982 RMK A01 T03000207  RH  057%=      5-min Rain = 0
KMD1 272139Z 18014KT 30/21 A2982 RMK A01 T02990207  RH  058%=      5-min Rain = 0
KMD1 272140Z 17014KT 30/21 A2982 RMK A01 T03000207  RH  057%=      5-min Rain = 0
KMD1 272141Z 18012KT 30/21 A2982 RMK A01 T03010208  RH  057%=      5-min Rain = 0
KMD1 272142Z 17012KT 30/21 A2982 RMK A01 T03020209  RH  057%=      5-min Rain = 0
KMD1 272143Z 18010KT 30/21 A2982 RMK A01 T03030209  RH  057%=      5-min Rain = 0
KMD1 272144Z 18008KT 30/21 A2982 RMK A01 T03030211  RH  058%=      5-min Rain = 0
KMD1 272145Z 17016G22KT 30/21 A2982 RMK A01 T03040214  RH  059%=      5-min Rain = 0
KMD1 272146Z 16020KT 31/21 A2982 RMK A01 T03050209  RH  057%=      5-min Rain = 0
KMD1 272147Z 16017G22KT 31/21 A2982 RMK A01 T03050210  RH  057%=      5-min Rain = 0
KMD1 272148Z 16012G17KT 30/21 A2982 RMK A01 T03030213  RH  059%=      5-min Rain = 0
KMD1 272149Z 17012G17KT 30/21 A2982 RMK A01 T03030209  RH  057%=      5-min Rain = 0
KMD1 272150Z 15011KT 30/21 A2982 RMK A01 T03020210  RH  058%=      5-min Rain = 0
KMD1 272151Z 14010KT 30/21 A2982 RMK A01 T03000214  RH  060%=      5-min Rain = 0
KMD1 272152Z 14011G16KT 30/21 A2982 RMK A01 T02980214  RH  061%=      5-min Rain = 0
KMD1 272153Z 14012G18KT 30/21 A2981 RMK A01 T02960210  RH  060%=      5-min Rain = 0
KMD1 272154Z 14012KT 29/21 A2981 RMK A01 T02940213  RH  062%=      5-min Rain = 0
KMD1 272155Z 15016KT 29/21 A2981 RMK A01 T02930207  RH  060%=      5-min Rain = 0
KMD1 272156Z 15013G18KT 29/21 A2981 RMK A01 T02930205  RH  059%=      5-min Rain = 0
KMD1 272157Z 15015KT 29/21 A2981 RMK A01 T02940210  RH  060%=      5-min Rain = 0
KMD1 272158Z 15014KT 30/21 A2981 RMK A01 T02960207  RH  059%=      5-min Rain = 0
KMD1 272159Z 15013KT 30/21 A2981 RMK A01 T02980206  RH  058%=      5-min Rain = 0
KMD1 272200Z 15015G20KT 30/21 A2981 RMK A01 T03000209  RH  058%=      5-min Rain = 0
KMD1 272201Z 15018KT 30/21 A2981 RMK A01 T03010206  RH  057%=      5-min Rain = 0
KMD1 272202Z 16018KT 30/21 A2981 RMK A01 T03000205  RH  057%=      5-min Rain = 0
KMD1 272203Z 17015G20KT 30/21 A2981 RMK A01 T02990206  RH  057%=      5-min Rain = 0
KMD1 272204Z 16013KT 30/21 A2981 RMK A01 T02990208  RH  058%=      5-min Rain = 0
KMD1 272205Z 17013KT 30/21 A2981 RMK A01 T02970206  RH  058%=      5-min Rain = 0
KMD1 272206Z 14012KT 30/20 A2981 RMK A01 T02970204  RH  058%=      5-min Rain = 0
KMD1 272207Z 16010G16KT 30/21 A2981 RMK A01 T02970210  RH  060%=      5-min Rain = 0
KMD1 272208Z 16014KT 30/21 A2981 RMK A01 T02990207  RH  058%=      5-min Rain = 0
KMD1 272209Z 17015KT 30/21 A2981 RMK A01 T03000207  RH  058%=      5-min Rain = 0
KMD1 272210Z 16015G20KT 30/21 A2981 RMK A01 T03000206  RH  057%=      5-min Rain = 0
KMD1 272211Z 15012KT 30/21 A2981 RMK A01 T02990209  RH  059%=      5-min Rain = 0
KMD1 272212Z 14013KT 30/21 A2981 RMK A01 T02990209  RH  058%=      5-min Rain = 0
KMD1 272213Z 15015KT 30/21 A2981 RMK A01 T02980208  RH  058%=      5-min Rain = 0
KMD1 272214Z 15011KT 30/21 A2981 RMK A01 T02970207  RH  058%=      5-min Rain = 0
KMD1 272215Z 15012KT 30/21 A2981 RMK A01 T02970210  RH  060%=      5-min Rain = 0
KMD1 272216Z 16014KT 30/21 A2981 RMK A01 T02970208  RH  059%=      5-min Rain = 0
KMD1 272217Z 17013KT 30/21 A2981 RMK A01 T02970206  RH  058%=      5-min Rain = 0
KMD1 272218Z 17013KT 30/21 A2981 RMK A01 T02980208  RH  058%=      5-min Rain = 0
KMD1 272219Z 17016KT 30/21 A2981 RMK A01 T03000208  RH  058%=      5-min Rain = 0
KMD1 272220Z 16015KT 30/21 A2981 RMK A01 T03000206  RH  057%=      5-min Rain = 0
KMD1 272221Z 16014KT 30/21 A298 RMK A01 T02990207  RH  058%=      5-min Rain = 0
KMD1 272222Z 16012KT 30/21 A298 RMK A01 T02990210  RH  059%=      5-min Rain = 0
KMD1 272223Z 17011KT 30/21 A298 RMK A01 T02990210  RH  059%=      5-min Rain = 0
KMD1 272224Z 16008KT 30/21 A298 RMK A01 T03000213  RH  060%=      5-min Rain = 0
KMD1 272225Z 16011KT 30/21 A298 RMK A01 T03010214  RH  059%=      5-min Rain = 0
KMD1 272226Z 15013KT 30/21 A298 RMK A01 T03010212  RH  059%=      5-min Rain = 0
KMD1 272227Z 15014KT 30/21 A298 RMK A01 T03000212  RH  059%=      5-min Rain = 0
KMD1 272228Z 16012KT 30/21 A298 RMK A01 T02990208  RH  058%=      5-min Rain = 0
KMD1 272229Z 17012KT 30/21 A298 RMK A01 T02990207  RH  058%=      5-min Rain = 0
KMD1 272230Z 17011KT 30/21 A298 RMK A01 T03000209  RH  058%=      5-min Rain = 0
KMD1 272231Z 17012KT 30/21 A298 RMK A01 T03000206  RH  057%=      5-min Rain = 0
KMD1 272232Z 17012G17KT 30/21 A298 RMK A01 T03010207  RH  057%=      5-min Rain = 0
KMD1 272233Z 16015KT 30/21 A298 RMK A01 T03000207  RH  057%=      5-min Rain = 0
KMD1 272234Z 15014G21KT 30/21 A298 RMK A01 T02990209  RH  058%=      5-min Rain = 0
KMD1 272235Z 15014KT 30/21 A298 RMK A01 T02990209  RH  059%=      5-min Rain = 0
KMD1 272236Z 15013KT 30/21 A298 RMK A01 T02990210  RH  059%=      5-min Rain = 0
KMD1 272237Z 15012KT 30/21 A298 RMK A01 T02970212  RH  060%=      5-min Rain = 0
KMD1 272238Z 16013KT 30/21 A298 RMK A01 T02970209  RH  059%=      5-min Rain = 0
KMD1 272239Z 17010G15KT 30/21 A298 RMK A01 T02970208  RH  059%=      5-min Rain = 0
KMD1 272240Z 18010KT 30/21 A298 RMK A01 T02970210  RH  060%=      5-min Rain = 0
KMD1 272241Z 18013KT 30/21 A298 RMK A01 T02980205  RH  058%=      5-min Rain = 0
KMD1 272242Z 18013KT 30/21 A298 RMK A01 T02980206  RH  058%=      5-min Rain = 0
KMD1 272243Z 17010KT 30/21 A298 RMK A01 T02980209  RH  059%=      5-min Rain = 0
KMD1 272244Z 18010KT 30/21 A298 RMK A01 T02980210  RH  059%=      5-min Rain = 0
KMD1 272245Z 17009G15KT 30/21 A298 RMK A01 T02990212  RH  060%=      5-min Rain = 0
KMD1 272246Z 15014G20KT 30/21 A298 RMK A01 T02990210  RH  059%=      5-min Rain = 0
KMD1 272247Z 15014KT 30/21 A298 RMK A01 T02990210  RH  059%=      5-min Rain = 0
KMD1 272248Z 15014KT 30/21 A298 RMK A01 T02980209  RH  059%=      5-min Rain = 0
KMD1 272249Z 15016KT 30/21 A298 RMK A01 T02960206  RH  058%=      5-min Rain = 0
KMD1 272250Z 14015KT 30/21 A298 RMK A01 T02960208  RH  059%=      5-min Rain = 0
KMD1 272251Z 15012KT 29/21 A298 RMK A01 T02940207  RH  059%=      5-min Rain = 0
KMD1 272252Z 17014KT 29/21 A298 RMK A01 T02940205  RH  059%=      5-min Rain = 0
KMD1 272253Z 16010KT 30/21 A298 RMK A01 T02950208  RH  059%=      5-min Rain = 0
KMD1 272254Z 16015KT 30/21 A298 RMK A01 T02970208  RH  059%=      5-min Rain = 0
KMD1 272255Z 16014G19KT 30/20 A298 RMK A01 T02970204  RH  058%=      5-min Rain = 0
KMD1 272256Z 16014KT 30/21 A298 RMK A01 T02970206  RH  058%=      5-min Rain = 0
KMD1 272257Z 16013KT 30/21 A298 RMK A01 T02960205  RH  058%=      5-min Rain = 0
KMD1 272258Z 16013KT 30/21 A298 RMK A01 T02960207  RH  059%=      5-min Rain = 0
KMD1 272259Z 18012KT 30/21 A298 RMK A01 T02960205  RH  058%=      5-min Rain = 0
KMD1 272300Z 17010KT 30/21 A298 RMK A01 T02960210  RH  060%=      5-min Rain = 0
KMD1 272301Z 16013G18KT 30/21 A298 RMK A01 T02960209  RH  060%=      5-min Rain = 0
KMD1 272302Z 16016KT 30/20 A298 RMK A01 T02950204  RH  058%=      5-min Rain = 0
KMD1 272303Z 16015KT 29/21 A298 RMK A01 T02940205  RH  059%=      5-min Rain = 0
KMD1 272304Z 16014G19KT 29/20 A298 RMK A01 T02930204  RH  059%=      5-min Rain = 0
KMD1 272305Z 16017G22KT 29/20 A298 RMK A01 T02930202  RH  058%=      5-min Rain = 0
KMD1 272306Z 17015KT 29/20 A298 RMK A01 T02930203  RH  058%=      5-min Rain = 0
KMD1 272307Z 15014KT 29/21 A298 RMK A01 T02930205  RH  059%=      5-min Rain = 0
KMD1 272308Z 16014KT 29/20 A298 RMK A01 T02930203  RH  058%=      5-min Rain = 0
KMD1 272309Z 16011KT 29/20 A298 RMK A01 T02930204  RH  058%=      5-min Rain = 0
KMD1 272310Z 16010KT 29/21 A298 RMK A01 T02940206  RH  059%=      5-min Rain = 0
KMD1 272311Z 17012KT 30/21 A298 RMK A01 T02960205  RH  058%=      5-min Rain = 0
KMD1 272312Z 17015KT 30/20 A298 RMK A01 T02960204  RH  058%=      5-min Rain = 0
KMD1 272313Z 16015KT 30/20 A298 RMK A01 T02950204  RH  058%=      5-min Rain = 0
KMD1 272314Z 16016G21KT 30/20 A298 RMK A01 T02950203  RH  058%=      5-min Rain = 0
KMD1 272315Z 17013KT 29/20 A298 RMK A01 T02940204  RH  058%=      5-min Rain = 0
KMD1 272316Z 15012KT 29/21 A298 RMK A01 T02940207  RH  060%=      5-min Rain = 0
KMD1 272317Z 16015KT 29/21 A2979 RMK A01 T02930205  RH  059%=      5-min Rain = 0
KMD1 272318Z 16013KT 29/20 A2979 RMK A01 T02930203  RH  058%=      5-min Rain = 0
KMD1 272319Z 15015KT 29/20 A2979 RMK A01 T02930204  RH  059%=      5-min Rain = 0
KMD1 272320Z 16015KT 29/20 A2979 RMK A01 T02930201  RH  057%=      5-min Rain = 0
KMD1 272321Z 16013KT 29/20 A2979 RMK A01 T02930203  RH  058%=      5-min Rain = 0
KMD1 272322Z 15012G17KT 29/20 A2979 RMK A01 T02930203  RH  058%=      5-min Rain = 0
KMD1 272323Z 15011KT 29/21 A2979 RMK A01 T02930206  RH  060%=      5-min Rain = 0
KMD1 272324Z 15016G21KT 29/20 A2979 RMK A01 T02930203  RH  058%=      5-min Rain = 0
KMD1 272325Z 14016KT 29/20 A2979 RMK A01 T02910201  RH  058%=      5-min Rain = 0
KMD1 272326Z 14013G18KT 29/20 A2979 RMK A01 T02900202  RH  059%=      5-min Rain = 0
KMD1 272327Z 15013KT 29/20 A2979 RMK A01 T02900204  RH  060%=      5-min Rain = 0
KMD1 272328Z 15014KT 29/20 A2979 RMK A01 T02890202  RH  060%=      5-min Rain = 0
KMD1 272329Z 17011KT 29/20 A2979 RMK A01 T02900202  RH  059%=      5-min Rain = 0
KMD1 272330Z 15010KT 29/20 A2979 RMK A01 T02910204  RH  060%=      5-min Rain = 0
KMD1 272331Z 15014KT 29/20 A2979 RMK A01 T02910203  RH  059%=      5-min Rain = 0
KMD1 272332Z 15012G17KT 29/20 A2979 RMK A01 T02910203  RH  059%=      5-min Rain = 0
KMD1 272333Z 15013G20KT 29/20 A2979 RMK A01 T02920204  RH  059%=      5-min Rain = 0
KMD1 272334Z 15015KT 29/20 A2979 RMK A01 T02910202  RH  058%=      5-min Rain = 0
KMD1 272335Z 16018KT 29/20 A2979 RMK A01 T02920200  RH  058%=      5-min Rain = 0
KMD1 272336Z 15014G19KT 29/20 A2979 RMK A01 T02920199  RH  057%=      5-min Rain = 0
KMD1 272337Z 15017KT 29/20 A2979 RMK A01 T02910203  RH  059%=      5-min Rain = 0
KMD1 272338Z 16011KT 29/20 A2979 RMK A01 T02900201  RH  059%=      5-min Rain = 0
KMD1 272339Z 16011KT 29/20 A2979 RMK A01 T02910203  RH  059%=      5-min Rain = 0
KMD1 272340Z 17011KT 29/20 A2979 RMK A01 T02910203  RH  059%=      5-min Rain = 0
KMD1 272341Z 17011KT 29/20 A2979 RMK A01 T02920204  RH  059%=      5-min Rain = 0
KMD1 272342Z 17016KT 29/20 A2979 RMK A01 T02920203  RH  059%=      5-min Rain = 0
KMD1 272343Z 17014G19KT 29/20 A2979 RMK A01 T02910200  RH  058%=      5-min Rain = 0
KMD1 272344Z 16012KT 29/20 A2979 RMK A01 T02910201  RH  058%=      5-min Rain = 0
KMD1 272345Z 17014KT 29/20 A2979 RMK A01 T02900200  RH  058%=      5-min Rain = 0
KMD1 272346Z 16011KT 29/20 A2979 RMK A01 T02900202  RH  059%=      5-min Rain = 0
KMD1 272347Z 16009KT 29/20 A2979 RMK A01 T02900202  RH  059%=      5-min Rain = 0
KMD1 272348Z 17017KT 29/20 A2979 RMK A01 T02900201  RH  059%=      5-min Rain = 0
KMD1 272349Z 17017KT 29/20 A2979 RMK A01 T02900198  RH  058%=      5-min Rain = 0
KMD1 272350Z 16014KT 29/20 A2979 RMK A01 T02900200  RH  058%=      5-min Rain = 0
KMD1 272351Z 16014KT 29/20 A2979 RMK A01 T02900201  RH  059%=      5-min Rain = 0
KMD1 272352Z 16012KT 29/20 A2979 RMK A01 T02900199  RH  058%=      5-min Rain = 0
KMD1 272353Z 17010G16KT 29/20 A2979 RMK A01 T02890202  RH  059%=      5-min Rain = 0
KMD1 272354Z 17014KT 29/20 A2979 RMK A01 T02890199  RH  058%=      5-min Rain = 0
KMD1 272355Z 17014KT 29/20 A2979 RMK A01 T02890199  RH  058%=      5-min Rain = 0
KMD1 272356Z 17011KT 29/20 A2979 RMK A01 T02890197  RH  057%=      5-min Rain = 0
KMD1 272357Z 16012G18KT 29/20 A2979 RMK A01 T02890199  RH  058%=      5-min Rain = 0
KMD1 272358Z 17013G18KT 29/20 A2979 RMK A01 T02890196  RH  057%=      5-min Rain = 0
KMD1 272359Z 17013KT 29/20 A2979 RMK A01 T02890197  RH  058%=      5-min Rain = 0
KMD1 280000Z 16016G21KT 29/20 A2979 RMK A01 T02890195  RH  057%=      5-min Rain = 0
KMD1 280001Z 16012KT 29/20 A2979 RMK A01 T02880196  RH  057%=      5-min Rain = 0
KMD1 280002Z 16013KT 29/20 A2979 RMK A01 T02880197  RH  058%=      5-min Rain = 0
KMD1 280003Z 15013KT 29/20 A2979 RMK A01 T02880196  RH  058%=      5-min Rain = 0
KMD1 280004Z 15012KT 29/20 A2979 RMK A01 T02880198  RH  058%=      5-min Rain = 0
KMD1 280005Z 16011KT 29/20 A2979 RMK A01 T02880199  RH  059%=      5-min Rain = 0
KMD1 280006Z 17012KT 29/20 A2979 RMK A01 T02880197  RH  058%=      5-min Rain = 0
KMD1 280007Z 16013KT 29/20 A2979 RMK A01 T02880198  RH  058%=      5-min Rain = 0
KMD1 280008Z 16013KT 29/20 A2979 RMK A01 T02870197  RH  058%=      5-min Rain = 0
KMD1 280009Z 16013KT 29/20 A2979 RMK A01 T02880197  RH  058%=      5-min Rain = 0
KMD1 280010Z 17012KT 29/20 A2979 RMK A01 T02870196  RH  058%=      5-min Rain = 0
KMD1 280011Z 17013G18KT 29/20 A2979 RMK A01 T02870197  RH  058%=      5-min Rain = 0
KMD1 280012Z 17017G22KT 29/20 A2979 RMK A01 T02870195  RH  058%=      5-min Rain = 0
KMD1 280013Z 16016KT 29/20 A2979 RMK A01 T02860195  RH  058%=      5-min Rain = 0
KMD1 280014Z 16013KT 29/20 A2979 RMK A01 T02870196  RH  058%=      5-min Rain = 0
KMD1 280015Z 16013KT 29/20 A2979 RMK A01 T02870196  RH  058%=      5-min Rain = 0
KMD1 280016Z 16014KT 29/20 A2979 RMK A01 T02860198  RH  059%=      5-min Rain = 0
KMD1 280017Z 17013KT 29/20 A2979 RMK A01 T02850198  RH  059%=      5-min Rain = 0
KMD1 280018Z 16013KT 29/20 A2979 RMK A01 T02850198  RH  059%=      5-min Rain = 0
KMD1 280019Z 17012KT 29/20 A2979 RMK A01 T02850197  RH  059%=      5-min Rain = 0
KMD1 280020Z 17009KT 29/20 A2979 RMK A01 T02850199  RH  060%=      5-min Rain = 0
KMD1 280021Z 17010KT 28/20 A2979 RMK A01 T02840200  RH  060%=      5-min Rain = 0
KMD1 280022Z 17013KT 28/20 A2978 RMK A01 T02840199  RH  060%=      5-min Rain = 0
KMD1 280023Z 17012KT 28/20 A2978 RMK A01 T02840197  RH  059%=      5-min Rain = 0
KMD1 280024Z 17010KT 28/20 A2978 RMK A01 T02840197  RH  060%=      5-min Rain = 0
KMD1 280025Z 16010KT 28/20 A2978 RMK A01 T02840199  RH  060%=      5-min Rain = 0
KMD1 280026Z 16013KT 28/20 A2978 RMK A01 T02840198  RH  060%=      5-min Rain = 0
KMD1 280027Z 17011KT 28/20 A2978 RMK A01 T02840198  RH  060%=      5-min Rain = 0
KMD1 280028Z 17008KT 28/20 A2978 RMK A01 T02840200  RH  060%=      5-min Rain = 0
KMD1 280029Z 16012G17KT 28/20 A2978 RMK A01 T02830199  RH  061%=      5-min Rain = 0
KMD1 280030Z 17013KT 28/20 A2978 RMK A01 T02820197  RH  060%=      5-min Rain = 0
KMD1 280031Z 16015KT 28/20 A2978 RMK A01 T02820196  RH  059%=      5-min Rain = 0
KMD1 280032Z 16012KT 28/20 A2978 RMK A01 T02830197  RH  060%=      5-min Rain = 0
KMD1 280033Z 17009KT 28/20 A2978 RMK A01 T02830198  RH  060%=      5-min Rain = 0
KMD1 280034Z 17010KT 28/20 A2978 RMK A01 T02820198  RH  060%=      5-min Rain = 0
KMD1 280035Z 16014KT 28/20 A2978 RMK A01 T02820198  RH  060%=      5-min Rain = 0
KMD1 280036Z 17012KT 28/20 A2978 RMK A01 T02820196  RH  060%=      5-min Rain = 0
KMD1 280037Z 16012KT 28/20 A2978 RMK A01 T02820197  RH  060%=      5-min Rain = 0
KMD1 280038Z 17016G22KT 28/20 A2978 RMK A01 T02820197  RH  060%=      5-min Rain = 0
KMD1 280039Z 16016KT 28/20 A2978 RMK A01 T02820196  RH  060%=      5-min Rain = 0
KMD1 280040Z 16014KT 28/20 A2978 RMK A01 T02820196  RH  060%=      5-min Rain = 0
KMD1 280041Z 17016KT 28/20 A2978 RMK A01 T02820195  RH  059%=      5-min Rain = 0
KMD1 280042Z 17017KT 28/20 A2978 RMK A01 T02820195  RH  059%=      5-min Rain = 0
KMD1 280043Z 17014KT 28/20 A2978 RMK A01 T02820195  RH  059%=      5-min Rain = 0
KMD1 280044Z 16014KT 28/20 A2978 RMK A01 T02820196  RH  059%=      5-min Rain = 0
KMD1 280045Z 16012KT 28/20 A2978 RMK A01 T02820196  RH  060%=      5-min Rain = 0
KMD1 280046Z 17011KT 28/20 A2978 RMK A01 T02810197  RH  060%=      5-min Rain = 0
KMD1 280047Z 15010KT 28/20 A2978 RMK A01 T02810197  RH  061%=      5-min Rain = 0
KMD1 280048Z 16013KT 28/20 A2978 RMK A01 T02800197  RH  061%=      5-min Rain = 0
KMD1 280049Z 17013KT 28/20 A2978 RMK A01 T02800196  RH  060%=      5-min Rain = 0
KMD1 280050Z 17011KT 28/20 A2978 RMK A01 T02800196  RH  060%=      5-min Rain = 0
KMD1 280051Z 16011KT 28/20 A2978 RMK A01 T02800195  RH  060%=      5-min Rain = 0
KMD1 280052Z 16014KT 28/20 A2978 RMK A01 T02800195  RH  060%=      5-min Rain = 0
KMD1 280053Z 16014KT 28/19 A2978 RMK A01 T02800193  RH  059%=      5-min Rain = 0
KMD1 280054Z 16012KT 28/19 A2978 RMK A01 T02800194  RH  060%=      5-min Rain = 0
KMD1 280055Z 16010KT 28/20 A2978 RMK A01 T02800195  RH  060%=      5-min Rain = 0
KMD1 280056Z 16014KT 28/19 A2978 RMK A01 T02790194  RH  060%=      5-min Rain = 0
KMD1 280057Z 16011KT 28/19 A2978 RMK A01 T02790193  RH  060%=      5-min Rain = 0
KMD1 280058Z 17011KT 28/19 A2978 RMK A01 T02790194  RH  060%=      5-min Rain = 0
KMD1 280059Z 17010KT 28/19 A2978 RMK A01 T02780193  RH  060%=      5-min Rain = 0
KMD1 280100Z 17009KT 28/19 A2978 RMK A01 T02780194  RH  060%=      5-min Rain = 0
KMD1 280101Z 16008KT 28/20 A2978 RMK A01 T02770195  RH  061%=      5-min Rain = 0
KMD1 280102Z 15008KT 28/19 A2978 RMK A01 T02760194  RH  061%=      5-min Rain = 0
KMD1 280103Z 16011KT 28/19 A2978 RMK A01 T02760193  RH  061%=      5-min Rain = 0
KMD1 280104Z 16012KT 28/19 A2978 RMK A01 T02760193  RH  061%=      5-min Rain = 0
KMD1 280105Z 16012KT 28/19 A2979 RMK A01 T02760193  RH  060%=      5-min Rain = 0
KMD1 280106Z 17010KT 28/19 A2979 RMK A01 T02760193  RH  061%=      5-min Rain = 0
KMD1 280107Z 17011KT 28/19 A2979 RMK A01 T02760193  RH  061%=      5-min Rain = 0
KMD1 280108Z 16010G15KT 28/19 A2979 RMK A01 T02760193  RH  061%=      5-min Rain = 0
KMD1 280109Z 17009G14KT 28/19 A2979 RMK A01 T02760194  RH  061%=      5-min Rain = 0
KMD1 280110Z 17011KT 28/19 A2979 RMK A01 T02750193  RH  061%=      5-min Rain = 0
KMD1 280111Z 16010KT 28/19 A2979 RMK A01 T02750193  RH  061%=      5-min Rain = 0
KMD1 280112Z 17009KT 28/19 A2979 RMK A01 T02750194  RH  061%=      5-min Rain = 0
KMD1 280113Z 17010KT 28/20 A2979 RMK A01 T02750195  RH  062%=      5-min Rain = 0
KMD1 280114Z 17009KT 27/19 A2979 RMK A01 T02740194  RH  062%=      5-min Rain = 0
KMD1 280115Z 17009KT 27/19 A2979 RMK A01 T02740194  RH  062%=      5-min Rain = 0
KMD1 280116Z 17008KT 27/19 A2979 RMK A01 T02740194  RH  062%=      5-min Rain = 0
KMD1 280117Z 17010KT 27/19 A2979 RMK A01 T02740194  RH  062%=      5-min Rain = 0
KMD1 280118Z 16009KT 27/19 A2979 RMK A01 T02740193  RH  061%=      5-min Rain = 0
KMD1 280119Z 17009KT 27/19 A2979 RMK A01 T02740194  RH  062%=      5-min Rain = 0
KMD1 280120Z 17010KT 27/19 A2979 RMK A01 T02730194  RH  062%=      5-min Rain = 0
KMD1 280121Z 17007KT 27/19 A2979 RMK A01 T02730194  RH  062%=      5-min Rain = 0
KMD1 280122Z 17006KT 27/20 A2979 RMK A01 T02730196  RH  063%=      5-min Rain = 0
KMD1 280123Z 18007KT 27/20 A2979 RMK A01 T02720195  RH  063%=      5-min Rain = 0
KMD1 280124Z 17008KT 27/20 A2979 RMK A01 T02710195  RH  063%=      5-min Rain = 0
KMD1 280125Z 17006KT 27/20 A2979 RMK A01 T02710195  RH  063%=      5-min Rain = 0
KMD1 280126Z 16007KT 27/20 A2979 RMK A01 T02700195  RH  064%=      5-min Rain = 0
KMD1 280127Z 17006KT 27/20 A2979 RMK A01 T02700195  RH  064%=      5-min Rain = 0
KMD1 280128Z 16006KT 27/20 A2979 RMK A01 T02690195  RH  064%=      5-min Rain = 0
KMD1 280129Z 17005KT 27/20 A2979 RMK A01 T02690196  RH  064%=      5-min Rain = 0
KMD1 280130Z 17006KT 27/20 A2979 RMK A01 T02680196  RH  065%=      5-min Rain = 0
KMD1 280131Z 17007KT 27/20 A2979 RMK A01 T02670195  RH  065%=      5-min Rain = 0
KMD1 280132Z 17005KT 27/20 A2979 RMK A01 T02670195  RH  065%=      5-min Rain = 0
KMD1 280133Z 16006KT 27/20 A2979 RMK A01 T02670197  RH  065%=      5-min Rain = 0
KMD1 280134Z 16007KT 27/20 A2979 RMK A01 T02660195  RH  065%=      5-min Rain = 0
KMD1 280135Z 17006KT 27/20 A2979 RMK A01 T02650195  RH  065%=      5-min Rain = 0
KMD1 280136Z 17006KT 27/20 A2979 RMK A01 T02660195  RH  065%=      5-min Rain = 0
KMD1 280137Z 17007KT 27/20 A2979 RMK A01 T02650196  RH  066%=      5-min Rain = 0
KMD1 280138Z 17008KT 27/20 A2979 RMK A01 T02650195  RH  065%=      5-min Rain = 0
KMD1 280139Z 16008KT 27/20 A298 RMK A01 T02650195  RH  065%=      5-min Rain = 0
KMD1 280140Z 17010KT 27/19 A298 RMK A01 T02650194  RH  065%=      5-min Rain = 0
KMD1 280141Z 16009KT 27/19 A298 RMK A01 T02660194  RH  065%=      5-min Rain = 0
KMD1 280142Z 17009KT 27/20 A298 RMK A01 T02670195  RH  065%=      5-min Rain = 0
KMD1 280143Z 17008KT 27/20 A298 RMK A01 T02670195  RH  065%=      5-min Rain = 0
KMD1 280144Z 17008KT 27/20 A298 RMK A01 T02660195  RH  065%=      5-min Rain = 0
KMD1 280145Z 17008KT 27/20 A298 RMK A01 T02660195  RH  065%=      5-min Rain = 0
KMD1 280146Z 17007KT 27/20 A298 RMK A01 T02650195  RH  065%=      5-min Rain = 0
KMD1 280147Z 16007KT 27/20 A298 RMK A01 T02650195  RH  065%=      5-min Rain = 0
KMD1 280148Z 16006KT 26/20 A298 RMK A01 T02640196  RH  066%=      5-min Rain = 0
KMD1 280149Z 16007KT 26/20 A298 RMK A01 T02630196  RH  066%=      5-min Rain = 0
KMD1 280150Z 16006KT 26/20 A298 RMK A01 T02620195  RH  067%=      5-min Rain = 0
KMD1 280151Z 17006KT 26/20 A298 RMK A01 T02620195  RH  067%=      5-min Rain = 0
KMD1 280152Z 17007KT 26/20 A298 RMK A01 T02620196  RH  067%=      5-min Rain = 0
KMD1 280153Z 17007KT 26/20 A298 RMK A01 T02610196  RH  067%=      5-min Rain = 0
KMD1 280154Z 16006KT 26/20 A298 RMK A01 T02620196  RH  067%=      5-min Rain = 0
KMD1 280155Z 16007KT 26/19 A298 RMK A01 T02610194  RH  067%=      5-min Rain = 0
KMD1 280156Z 17007KT 26/20 A298 RMK A01 T02620195  RH  067%=      5-min Rain = 0
KMD1 280157Z 17007KT 26/20 A298 RMK A01 T02620196  RH  067%=      5-min Rain = 0
KMD1 280158Z 16009KT 26/20 A298 RMK A01 T02620196  RH  067%=      5-min Rain = 0
KMD1 280159Z 16009KT 26/20 A298 RMK A01 T02610195  RH  067%=      5-min Rain = 0
KMD1 280200Z 17007KT 26/20 A298 RMK A01 T02610196  RH  067%=      5-min Rain = 0
KMD1 280201Z 16007KT 26/20 A298 RMK A01 T02610196  RH  067%=      5-min Rain = 0
KMD1 280202Z 16009KT 26/20 A298 RMK A01 T02600196  RH  068%=      5-min Rain = 0
KMD1 280203Z 16009KT 26/20 A298 RMK A01 T02600195  RH  067%=      5-min Rain = 0
KMD1 280204Z 16009KT 26/20 A298 RMK A01 T02620195  RH  067%=      5-min Rain = 0
KMD1 280205Z 16010KT 26/19 A298 RMK A01 T02620194  RH  066%=      5-min Rain = 0
KMD1 280206Z 16008KT 26/20 A298 RMK A01 T02630195  RH  066%=      5-min Rain = 0
KMD1 280207Z 16010KT 26/20 A298 RMK A01 T02630195  RH  066%=      5-min Rain = 0
KMD1 280208Z 16010KT 26/20 A298 RMK A01 T02640196  RH  066%=      5-min Rain = 0
KMD1 280209Z 16009KT 26/20 A298 RMK A01 T02630195  RH  066%=      5-min Rain = 0
KMD1 280210Z 16006KT 26/20 A298 RMK A01 T02640195  RH  066%=      5-min Rain = 0
KMD1 280211Z 16007KT 26/20 A298 RMK A01 T02630196  RH  067%=      5-min Rain = 0
KMD1 280212Z 16007KT 26/20 A298 RMK A01 T02610196  RH  068%=      5-min Rain = 0
KMD1 280213Z 16006KT 26/20 A298 RMK A01 T02600196  RH  068%=      5-min Rain = 0
KMD1 280214Z 15005KT 26/20 A298 RMK A01 T02600195  RH  068%=      5-min Rain = 0
KMD1 280215Z 15007KT 26/20 A298 RMK A01 T02590195  RH  068%=      5-min Rain = 0
KMD1 280216Z 15006KT 26/20 A298 RMK A01 T02580195  RH  068%=      5-min Rain = 0
KMD1 280217Z 16008KT 26/20 A298 RMK A01 T02580195  RH  068%=      5-min Rain = 0
KMD1 280218Z 15008KT 26/19 A298 RMK A01 T02580194  RH  068%=      5-min Rain = 0
KMD1 280219Z 15006KT 26/20 A298 RMK A01 T02590195  RH  068%=      5-min Rain = 0
KMD1 280220Z 15007KT 26/20 A298 RMK A01 T02590195  RH  068%=      5-min Rain = 0
KMD1 280221Z 16007KT 26/20 A298 RMK A01 T02580195  RH  068%=      5-min Rain = 0
KMD1 280222Z 15006KT 26/20 A298 RMK A01 T02580195  RH  068%=      5-min Rain = 0
KMD1 280223Z 15006KT 26/20 A298 RMK A01 T02580195  RH  068%=      5-min Rain = 0
KMD1 280224Z 14006KT 26/19 A298 RMK A01 T02580194  RH  068%=      5-min Rain = 0
KMD1 280225Z 15006KT 26/19 A298 RMK A01 T02580194  RH  068%=      5-min Rain = 0
KMD1 280226Z 14007KT 26/19 A298 RMK A01 T02580194  RH  068%=      5-min Rain = 0
KMD1 280227Z 15005KT 26/20 A298 RMK A01 T02570195  RH  068%=      5-min Rain = 0
KMD1 280228Z 15005KT 26/20 A298 RMK A01 T02560195  RH  069%=      5-min Rain = 0
KMD1 280229Z 15007KT 26/19 A298 RMK A01 T02560194  RH  069%=      5-min Rain = 0
KMD1 280230Z 15006KT 26/19 A298 RMK A01 T02560194  RH  069%=      5-min Rain = 0
KMD1 280231Z 14006KT 26/20 A298 RMK A01 T02560195  RH  069%=      5-min Rain = 0
KMD1 280232Z 14006KT 26/20 A298 RMK A01 T02550195  RH  069%=      5-min Rain = 0
KMD1 280233Z 15005KT 25/19 A298 RMK A01 T02540194  RH  069%=      5-min Rain = 0
KMD1 280234Z 14005KT 25/19 A298 RMK A01 T02540194  RH  069%=      5-min Rain = 0
KMD1 280235Z 14007KT 25/19 A298 RMK A01 T02540194  RH  069%=      5-min Rain = 0
KMD1 280236Z 14008KT 25/19 A298 RMK A01 T02540193  RH  069%=      5-min Rain = 0
KMD1 280237Z 14007KT 25/19 A298 RMK A01 T02540193  RH  069%=      5-min Rain = 0
KMD1 280238Z 13006KT 25/19 A298 RMK A01 T02540194  RH  069%=      5-min Rain = 0
KMD1 280239Z 14007KT 25/19 A298 RMK A01 T02530194  RH  070%=      5-min Rain = 0
KMD1 280240Z 14006KT 25/19 A298 RMK A01 T02510194  RH  071%=      5-min Rain = 0
KMD1 280241Z 13007KT 25/19 A298 RMK A01 T02500194  RH  071%=      5-min Rain = 0
KMD1 280242Z 13007KT 25/20 A298 RMK A01 T02500195  RH  071%=      5-min Rain = 0
KMD1 280243Z 14006KT 25/19 A298 RMK A01 T02480194  RH  072%=      5-min Rain = 0
KMD1 280244Z 14006KT 25/19 A298 RMK A01 T02480194  RH  072%=      5-min Rain = 0
KMD1 280245Z 13005KT 25/19 A298 RMK A01 T02480193  RH  072%=      5-min Rain = 0
KMD1 280246Z 13006KT 25/19 A298 RMK A01 T02480193  RH  072%=      5-min Rain = 0
KMD1 280247Z 13007KT 25/19 A298 RMK A01 T02480194  RH  072%=      5-min Rain = 0
KMD1 280248Z 13007KT 25/19 A298 RMK A01 T02470193  RH  072%=      5-min Rain = 0
KMD1 280249Z 13007KT 25/19 A298 RMK A01 T02470193  RH  071%=      5-min Rain = 0
KMD1 280250Z 13007KT 25/19 A298 RMK A01 T02480193  RH  071%=      5-min Rain = 0
KMD1 280251Z 13007KT 25/19 A298 RMK A01 T02480193  RH  071%=      5-min Rain = 0
KMD1 280252Z 14006KT 25/19 A298 RMK A01 T02480193  RH  072%=      5-min Rain = 0
KMD1 280253Z 14006KT 25/19 A298 RMK A01 T02470193  RH  072%=      5-min Rain = 0
KMD1 280254Z 14008KT 25/19 A298 RMK A01 T02470193  RH  072%=      5-min Rain = 0
KMD1 280255Z 14009KT 25/19 A298 RMK A01 T02470192  RH  071%=      5-min Rain = 0
KMD1 280256Z 14007KT 25/19 A298 RMK A01 T02490192  RH  071%=      5-min Rain = 0
KMD1 280257Z 14007KT 25/19 A298 RMK A01 T02500192  RH  070%=      5-min Rain = 0
KMD1 280258Z 13007KT 25/19 A298 RMK A01 T02500193  RH  071%=      5-min Rain = 0
KMD1 280259Z 14007KT 25/19 A298 RMK A01 T02490193  RH  071%=      5-min Rain = 0
KMD1 280300Z 14008KT 25/19 A298 RMK A01 T02480193  RH  071%=      5-min Rain = 0
KMD1 280301Z 14008KT 25/19 A298 RMK A01 T02480192  RH  071%=      5-min Rain = 0
KMD1 280302Z 14006KT 25/19 A298 RMK A01 T02480192  RH  071%=      5-min Rain = 0
KMD1 280303Z 14007KT 25/19 A298 RMK A01 T02480192  RH  071%=      5-min Rain = 0
KMD1 280304Z 14008KT 25/19 A298 RMK A01 T02480192  RH  071%=      5-min Rain = 0
KMD1 280305Z 14006KT 25/19 A298 RMK A01 T02490191  RH  070%=      5-min Rain = 0
KMD1 280306Z 13007KT 25/19 A298 RMK A01 T02490192  RH  070%=      5-min Rain = 0
KMD1 280307Z 13007KT 25/19 A298 RMK A01 T02490192  RH  071%=      5-min Rain = 0
KMD1 280308Z 14006KT 25/19 A298 RMK A01 T02480192  RH  071%=      5-min Rain = 0
KMD1 280309Z 14007KT 25/19 A298 RMK A01 T02480192  RH  071%=      5-min Rain = 0
KMD1 280310Z 13006KT 25/19 A298 RMK A01 T02470192  RH  072%=      5-min Rain = 0
KMD1 280311Z 14006KT 25/19 A298 RMK A01 T02460193  RH  072%=      5-min Rain = 0
KMD1 280312Z 14007KT 24/19 A298 RMK A01 T02440193  RH  073%=      5-min Rain = 0
KMD1 280313Z 13009KT 24/19 A298 RMK A01 T02440192  RH  073%=      5-min Rain = 0
KMD1 280314Z 14009KT 25/19 A298 RMK A01 T02450191  RH  072%=      5-min Rain = 0
KMD1 280315Z 13008KT 25/19 A298 RMK A01 T02450191  RH  072%=      5-min Rain = 0
KMD1 280316Z 13007KT 25/19 A298 RMK A01 T02450192  RH  072%=      5-min Rain = 0
KMD1 280317Z 13009KT 25/19 A298 RMK A01 T02460193  RH  072%=      5-min Rain = 0
KMD1 280318Z 14008KT 25/19 A298 RMK A01 T02450192  RH  072%=      5-min Rain = 0
KMD1 280319Z 13007KT 25/19 A298 RMK A01 T02450193  RH  073%=      5-min Rain = 0
KMD1 280320Z 14007KT 24/19 A298 RMK A01 T02440192  RH  073%=      5-min Rain = 0
KMD1 280321Z 13009KT 24/19 A298 RMK A01 T02430192  RH  073%=      5-min Rain = 0
KMD1 280322Z 13009KT 24/19 A298 RMK A01 T02430192  RH  073%=      5-min Rain = 0
KMD1 280323Z 14008KT 24/19 A298 RMK A01 T02430192  RH  073%=      5-min Rain = 0
KMD1 280324Z 14008KT 24/19 A298 RMK A01 T02430192  RH  073%=      5-min Rain = 0
KMD1 280325Z 13006KT 24/19 A298 RMK A01 T02430192  RH  073%=      5-min Rain = 0
KMD1 280326Z 13008KT 24/19 A298 RMK A01 T02430193  RH  074%=      5-min Rain = 0
KMD1 280327Z 13008KT 24/19 A298 RMK A01 T02430192  RH  073%=      5-min Rain = 0
KMD1 280328Z 13007KT 24/19 A298 RMK A01 T02420192  RH  073%=      5-min Rain = 0
KMD1 280329Z 13006KT 24/19 A298 RMK A01 T02420193  RH  074%=      5-min Rain = 0
KMD1 280330Z 13008KT 24/19 A298 RMK A01 T02410193  RH  075%=      5-min Rain = 0
KMD1 280331Z 13007KT 24/19 A298 RMK A01 T02400192  RH  075%=      5-min Rain = 0
KMD1 280332Z 13006KT 24/19 A298 RMK A01 T02400193  RH  075%=      5-min Rain = 0
KMD1 280333Z 13007KT 24/19 A298 RMK A01 T02390193  RH  076%=      5-min Rain = 0
KMD1 280334Z 13007KT 24/19 A298 RMK A01 T02380193  RH  076%=      5-min Rain = 0
KMD1 280335Z 12007KT 24/19 A298 RMK A01 T02380193  RH  076%=      5-min Rain = 0
KMD1 280336Z 12006KT 24/19 A298 RMK A01 T02380193  RH  076%=      5-min Rain = 0
KMD1 280337Z 12005KT 24/19 A298 RMK A01 T02370193  RH  076%=      5-min Rain = 0
KMD1 280338Z 12005KT 24/19 A298 RMK A01 T02360193  RH  077%=      5-min Rain = 0
KMD1 280339Z 11004KT 24/19 A298 RMK A01 T02360193  RH  077%=      5-min Rain = 0
KMD1 280340Z 11005KT 24/19 A298 RMK A01 T02360193  RH  077%=      5-min Rain = 0
KMD1 280341Z 13005KT 24/19 A298 RMK A01 T02350193  RH  077%=      5-min Rain = 0
KMD1 280342Z 12005KT 24/19 A298 RMK A01 T02350193  RH  078%=      5-min Rain = 0
KMD1 280343Z 12005KT 23/19 A298 RMK A01 T02330193  RH  078%=      5-min Rain = 0
KMD1 280344Z 12006KT 23/19 A298 RMK A01 T02330193  RH  078%=      5-min Rain = 0
KMD1 280345Z 12006KT 23/19 A298 RMK A01 T02330193  RH  078%=      5-min Rain = 0
KMD1 280346Z 13005KT 23/19 A298 RMK A01 T02320193  RH  079%=      5-min Rain = 0
KMD1 280347Z 13008KT 23/19 A298 RMK A01 T02310193  RH  079%=      5-min Rain = 0
KMD1 280348Z 13006KT 23/19 A298 RMK A01 T02320192  RH  078%=      5-min Rain = 0
KMD1 280349Z 13007KT 23/19 A298 RMK A01 T02330193  RH  078%=      5-min Rain = 0
KMD1 280350Z 13008KT 23/19 A298 RMK A01 T02340192  RH  077%=      5-min Rain = 0
KMD1 280351Z 13008KT 24/19 A298 RMK A01 T02360192  RH  077%=      5-min Rain = 0
KMD1 280352Z 14008KT 24/19 A298 RMK A01 T02380192  RH  075%=      5-min Rain = 0
KMD1 280353Z 14010KT 24/19 A298 RMK A01 T02400192  RH  075%=      5-min Rain = 0
KMD1 280354Z 13007KT 24/19 A298 RMK A01 T02400192  RH  074%=      5-min Rain = 0
KMD1 280355Z 14011KT 24/19 A298 RMK A01 T02420192  RH  074%=      5-min Rain = 0
KMD1 280356Z 14010KT 24/19 A298 RMK A01 T02420192  RH  073%=      5-min Rain = 0
KMD1 280357Z 14010KT 24/19 A298 RMK A01 T02430192  RH  073%=      5-min Rain = 0
KMD1 280358Z 15009KT 24/19 A298 RMK A01 T02440192  RH  073%=      5-min Rain = 0
KMD1 280359Z 15008KT 24/19 A298 RMK A01 T02440192  RH  073%=      5-min Rain = 0
KMD1 280400Z 14008KT 24/19 A298 RMK A01 T02440192  RH  073%=      5-min Rain = 0
KMD1 280401Z 14011KT 24/19 A298 RMK A01 T02440193  RH  073%=      5-min Rain = 0
KMD1 280402Z 14010KT 24/19 A298 RMK A01 T02430192  RH  073%=      5-min Rain = 0
KMD1 280403Z 14010KT 24/19 A298 RMK A01 T02440192  RH  073%=      5-min Rain = 0
KMD1 280404Z 14011KT 25/19 A298 RMK A01 T02450192  RH  072%=      5-min Rain = 0
KMD1 280405Z 14009G14KT 25/19 A298 RMK A01 T02450192  RH  072%=      5-min Rain = 0
KMD1 280406Z 14009KT 25/19 A298 RMK A01 T02460192  RH  072%=      5-min Rain = 0
KMD1 280407Z 14007KT 25/19 A298 RMK A01 T02450193  RH  073%=      5-min Rain = 0
KMD1 280408Z 14008KT 24/19 A298 RMK A01 T02440193  RH  073%=      5-min Rain = 0
KMD1 280409Z 14007KT 24/19 A298 RMK A01 T02430192  RH  073%=      5-min Rain = 0
KMD1 280410Z 13009KT 24/19 A298 RMK A01 T02430192  RH  073%=      5-min Rain = 0
KMD1 280411Z 14010KT 24/19 A298 RMK A01 T02430192  RH  073%=      5-min Rain = 0
KMD1 280412Z 15011KT 24/19 A298 RMK A01 T02430192  RH  074%=      5-min Rain = 0
KMD1 280413Z 13007KT 24/19 A298 RMK A01 T02430192  RH  073%=      5-min Rain = 0
KMD1 280414Z 13009KT 24/19 A298 RMK A01 T02430192  RH  073%=      5-min Rain = 0
KMD1 280415Z 13011KT 24/19 A298 RMK A01 T02430192  RH  073%=      5-min Rain = 0
KMD1 280416Z 13010KT 24/19 A298 RMK A01 T02440192  RH  073%=      5-min Rain = 0
KMD1 280417Z 12007KT 24/19 A298 RMK A01 T02430192  RH  073%=      5-min Rain = 0
KMD1 280418Z 14007KT 24/19 A298 RMK A01 T02430193  RH  074%=      5-min Rain = 0
KMD1 280419Z 14007KT 24/19 A298 RMK A01 T02410193  RH  074%=      5-min Rain = 0
KMD1 280420Z 14009KT 24/19 A298 RMK A01 T02410193  RH  075%=      5-min Rain = 0
KMD1 280421Z 14007KT 24/19 A298 RMK A01 T02410193  RH  074%=      5-min Rain = 0
KMD1 280422Z 13009KT 24/19 A298 RMK A01 T02420193  RH  074%=      5-min Rain = 0
KMD1 280423Z 14007KT 24/19 A298 RMK A01 T02420193  RH  074%=      5-min Rain = 0
KMD1 280424Z 14010KT 24/19 A298 RMK A01 T02420193  RH  074%=      5-min Rain = 0
KMD1 280425Z 13012KT 24/19 A298 RMK A01 T02420194  RH  074%=      5-min Rain = 0
KMD1 280426Z 13008KT 24/19 A298 RMK A01 T02430194  RH  074%=      5-min Rain = 0
KMD1 280427Z 14009KT 24/20 A298 RMK A01 T02430195  RH  074%=      5-min Rain = 0
KMD1 280428Z 14008KT 24/20 A298 RMK A01 T02420195  RH  075%=      5-min Rain = 0
KMD1 280429Z 14008KT 24/19 A298 RMK A01 T02420194  RH  075%=      5-min Rain = 0
KMD1 280430Z 13008KT 24/20 A298 RMK A01 T02410195  RH  075%=      5-min Rain = 0
KMD1 280431Z 14010KT 24/20 A298 RMK A01 T02410195  RH  076%=      5-min Rain = 0
KMD1 280432Z 14009KT 24/19 A298 RMK A01 T02410194  RH  075%=      5-min Rain = 0
KMD1 280433Z 14007KT 24/20 A298 RMK A01 T02420195  RH  075%=      5-min Rain = 0
KMD1 280434Z 13007G12KT 24/20 A298 RMK A01 T02410196  RH  076%=      5-min Rain = 0
KMD1 280435Z 12008KT 24/20 A298 RMK A01 T02400196  RH  077%=      5-min Rain = 0
KMD1 280436Z 13008KT 24/20 A298 RMK A01 T02390196  RH  077%=      5-min Rain = 0
KMD1 280437Z 13008KT 24/20 A298 RMK A01 T02390195  RH  076%=      5-min Rain = 0
KMD1 280438Z 14009KT 24/20 A298 RMK A01 T02400195  RH  076%=      5-min Rain = 0
KMD1 280439Z 14009KT 24/20 A298 RMK A01 T02410196  RH  076%=      5-min Rain = 0
KMD1 280440Z 15007KT 24/20 A298 RMK A01 T02430196  RH  075%=      5-min Rain = 0
KMD1 280441Z 14007KT 24/20 A298 RMK A01 T02430197  RH  075%=      5-min Rain = 0
KMD1 280442Z 13007KT 24/20 A298 RMK A01 T02420197  RH  076%=      5-min Rain = 0
KMD1 280443Z 14006KT 24/20 A298 RMK A01 T02410198  RH  077%=      5-min Rain = 0
KMD1 280444Z 14008KT 24/20 A298 RMK A01 T02400198  RH  077%=      5-min Rain = 0
KMD1 280445Z 14008KT 24/20 A298 RMK A01 T02390197  RH  077%=      5-min Rain = 0
KMD1 280446Z 13008KT 24/20 A298 RMK A01 T02400197  RH  077%=      5-min Rain = 0
KMD1 280447Z 14007KT 24/20 A298 RMK A01 T02410197  RH  077%=      5-min Rain = 0
KMD1 280448Z 13005KT 24/20 A298 RMK A01 T02410198  RH  077%=      5-min Rain = 0
KMD1 280449Z 15007KT 24/20 A298 RMK A01 T02410199  RH  077%=      5-min Rain = 0
KMD1 280450Z 14005KT 24/20 A298 RMK A01 T02410198  RH  077%=      5-min Rain = 0
KMD1 280451Z 14006KT 24/20 A298 RMK A01 T02410199  RH  078%=      5-min Rain = 0
KMD1 280452Z 14007KT 24/20 A298 RMK A01 T02400199  RH  078%=      5-min Rain = 0
KMD1 280453Z 14007KT 24/20 A298 RMK A01 T02400199  RH  078%=      5-min Rain = 0
KMD1 280454Z 13009KT 24/20 A298 RMK A01 T02400199  RH  078%=      5-min Rain = 0
KMD1 280455Z 14008KT 24/20 A298 RMK A01 T02400199  RH  078%=      5-min Rain = 0
KMD1 280456Z 13008KT 24/20 A298 RMK A01 T02400199  RH  078%=      5-min Rain = 0
KMD1 280457Z 14006KT 24/20 A298 RMK A01 T02400199  RH  078%=      5-min Rain = 0
KMD1 280458Z 13009KT 24/20 A298 RMK A01 T02400199  RH  078%=      5-min Rain = 0
KMD1 280459Z 16007KT 24/20 A298 RMK A01 T02400200  RH  078%=      5-min Rain = 0

Page generated in 0.0934 seconds.